Time,TemperatureF,DewpointF,PressureIn,WindDirection,WindDirectionDegrees,WindSpeedMPH,WindSpeedGustMPH,Humidity,HourlyPrecipIn,Conditions,Clouds,dailyrainin,SoftwareType,DateUTC
2013-03-18 00:00:00,21.4,5.2,30.35,NE,42,6.9,9.2,49,0.00,CLR,OVC,0.00,WeatherDisplay:10.37,2013-03-18 04:00:00,
2013-03-18 00:05:00,21.7,4.5,30.34,NNE,32,8.3,12.7,47,0.00,CLR,OVC,0.00,WeatherDisplay:10.37,2013-03-18 04:05:00,
2013-03-18 00:10:00,21.9,4.3,30.35,NNE,19,8.7,11.5,46,0.00,CLR,OVC,0.00,WeatherDisplay:10.37,2013-03-18 04:10:00,
2013-03-18 00:12:00,21.9,4.7,30.35,NNE,33,7.0,11.0,47,0.00,CLR,OVC,0.00,WeatherDisplay:10.37,2013-03-18 04:12:00,
2013-03-18 00:15:00,21.9,4.3,30.35,NNE,31,8.9,11.5,46,0.00,CLR,OVC,0.00,WeatherDisplay:10.37,2013-03-18 04:15:00,
2013-03-18 00:17:00,22.0,4.3,30.35,NE,38,10.4,13.8,46,0.00,CLR,OVC,0.00,WeatherDisplay:10.37,2013-03-18 04:17:00,
2013-03-18 00:20:00,22.1,4.0,30.35,NNE,31,10.0,15.0,45,0.00,CLR,OVC,0.00,WeatherDisplay:10.37,2013-03-18 04:20:00,
2013-03-18 00:21:00,22.1,4.4,30.35,NE,39,9.6,11.5,46,0.00,CLR,OVC,0.00,WeatherDisplay:10.37,2013-03-18 04:21:00,
2013-03-18 00:22:00,22.1,4.0,30.35,NE,38,8.2,12.0,45,0.00,CLR,OVC,0.00,WeatherDisplay:10.37,2013-03-18 04:22:00,
2013-03-18 00:25:00,22.1,4.0,30.35,NNE,26,7.6,11.5,45,0.00,CLR,OVC,0.00,WeatherDisplay:10.37,2013-03-18 04:25:00,
2013-03-18 00:26:00,22.0,3.9,30.35,NE,38,8.4,12.7,45,0.00,CLR,OVC,0.00,WeatherDisplay:10.37,2013-03-18 04:26:00,
2013-03-18 00:28:00,22.0,3.9,30.35,NNE,33,9.2,11.5,45,0.00,CLR,OVC,0.00,WeatherDisplay:10.37,2013-03-18 04:28:00,
2013-03-18 00:30:00,22.0,4.3,30.35,NNE,27,9.0,11.0,46,0.00,CLR,OVC,0.00,WeatherDisplay:10.37,2013-03-18 04:30:00,
2013-03-18 00:31:00,21.9,4.3,30.35,NNE,31,8.8,11.5,46,0.00,CLR,OVC,0.00,WeatherDisplay:10.37,2013-03-18 04:31:00,
2013-03-18 00:33:00,21.9,3.8,30.35,NNE,28,9.4,15.0,45,0.00,CLR,OVC,0.00,WeatherDisplay:10.37,2013-03-18 04:33:00,
2013-03-18 00:36:00,21.9,3.8,30.35,NE,37,9.4,11.5,45,0.00,CLR,OVC,0.00,WeatherDisplay:10.37,2013-03-18 04:36:00,
2013-03-18 00:39:00,21.8,4.2,30.35,NNE,32,9.0,11.5,46,0.00,CLR,OVC,0.00,WeatherDisplay:10.37,2013-03-18 04:39:00,
2013-03-18 00:41:00,21.8,4.2,30.35,NNE,26,6.8,10.4,46,0.00,CLR,OVC,0.00,WeatherDisplay:10.37,2013-03-18 04:41:00,
2013-03-18 00:44:00,21.7,4.1,30.35,NE,52,6.4,11.5,46,0.00,CLR,OVC,0.00,WeatherDisplay:10.37,2013-03-18 04:44:00,
2013-03-18 00:46:00,21.6,4.0,30.35,NE,46,5.4,8.1,46,0.00,CLR,OVC,0.00,WeatherDisplay:10.37,2013-03-18 04:46:00,
2013-03-18 00:49:00,21.4,4.3,30.35,ENE,60,4.8,7.0,47,0.00,CLR,OVC,0.00,WeatherDisplay:10.37,2013-03-18 04:49:00,
2013-03-18 00:51:00,21.3,4.2,30.35,NE,50,6.5,9.2,47,0.00,CLR,OVC,0.00,WeatherDisplay:10.37,2013-03-18 04:51:00,
2013-03-18 00:52:00,21.3,4.2,30.35,NNE,30,2.9,9.2,47,0.00,CLR,OVC,0.00,WeatherDisplay:10.37,2013-03-18 04:52:00,
2013-03-18 00:54:00,21.2,4.1,30.35,NE,54,5.1,9.2,47,0.00,CLR,OVC,0.00,WeatherDisplay:10.37,2013-03-18 04:54:00,
2013-03-18 00:57:00,21.1,4.0,30.35,ENE,74,4.8,8.1,47,0.00,CLR,OVC,0.00,WeatherDisplay:10.37,2013-03-18 04:57:00,
2013-03-18 00:59:00,21.0,4.4,30.35,ENE,59,5.4,8.1,48,0.00,CLR,OVC,0.00,WeatherDisplay:10.37,2013-03-18 04:59:00,
2013-03-18 01:02:00,20.9,4.3,30.35,ENE,62,3.2,5.8,48,0.00,CLR,OVC,0.00,WeatherDisplay:10.37,2013-03-18 05:02:00,
2013-03-18 01:04:00,20.9,4.2,30.36,ENE,58,5.0,7.0,48,0.00,CLR,OVC,0.00,WeatherDisplay:10.37,2013-03-18 05:04:00,
2013-03-18 01:07:00,20.7,4.5,30.36,ENE,58,5.5,8.1,49,0.00,CLR,OVC,0.00,WeatherDisplay:10.37,2013-03-18 05:07:00,
2013-03-18 01:09:00,20.6,4.4,30.36,NE,47,6.2,9.2,49,0.00,CLR,OVC,0.00,WeatherDisplay:10.37,2013-03-18 05:09:00,
2013-03-18 01:12:00,20.5,4.8,30.36,NE,47,3.1,4.6,50,0.00,CLR,OVC,0.00,WeatherDisplay:10.37,2013-03-18 05:12:00,
2013-03-18 01:13:00,20.5,4.8,30.36,NE,47,2.7,3.5,50,0.00,CLR,OVC,0.00,WeatherDisplay:10.37,2013-03-18 05:13:00,
2013-03-18 01:14:00,20.3,5.0,30.36,NE,47,3.2,4.6,51,0.00,CLR,OVC,0.00,WeatherDisplay:10.37,2013-03-18 05:14:00,
2013-03-18 01:17:00,19.9,5.1,30.36,NE,47,4.0,5.0,52,0.00,CLR,OVC,0.00,WeatherDisplay:10.37,2013-03-18 05:17:00,
2013-03-18 01:18:00,19.9,5.1,30.37,NE,47,3.6,4.6,52,0.00,CLR,OVC,0.00,WeatherDisplay:10.37,2013-03-18 05:18:00,
2013-03-18 01:20:00,19.6,4.8,30.36,NE,47,4.3,5.8,52,0.00,CLR,OVC,0.00,WeatherDisplay:10.37,2013-03-18 05:20:00,
2013-03-18 01:22:00,19.3,4.9,30.37,NE,47,3.8,4.6,53,0.00,CLR,OVC,0.00,WeatherDisplay:10.37,2013-03-18 05:22:00,
2013-03-18 01:23:00,19.3,4.9,30.37,NE,47,3.9,4.6,53,0.00,CLR,OVC,0.00,WeatherDisplay:10.37,2013-03-18 05:23:00,
2013-03-18 01:25:00,19.0,5.1,30.37,NE,47,4.1,5.8,54,0.00,CLR,OVC,0.00,WeatherDisplay:10.37,2013-03-18 05:25:00,
2013-03-18 01:28:00,18.7,5.2,30.36,NE,47,3.8,4.6,55,0.00,CLR,OVC,0.00,WeatherDisplay:10.37,2013-03-18 05:28:00,
2013-03-18 01:30:00,18.5,5.0,30.37,NE,47,3.5,4.6,55,0.00,CLR,OVC,0.00,WeatherDisplay:10.37,2013-03-18 05:30:00,
2013-03-18 01:33:00,18.4,4.9,30.37,NE,48,4.2,6.0,55,0.00,CLR,OVC,0.00,WeatherDisplay:10.37,2013-03-18 05:33:00,
2013-03-18 01:35:00,18.3,5.2,30.37,NE,49,3.9,5.0,56,0.00,CLR,OVC,0.00,WeatherDisplay:10.37,2013-03-18 05:35:00,
2013-03-18 01:38:00,18.2,5.1,30.37,NE,49,3.8,4.6,56,0.00,CLR,OVC,0.00,WeatherDisplay:10.37,2013-03-18 05:38:00,
2013-03-18 01:39:00,18.2,5.1,30.37,NE,52,4.3,6.9,56,0.00,CLR,OVC,0.00,WeatherDisplay:10.37,2013-03-18 05:39:00,
2013-03-18 01:40:00,18.2,5.1,30.37,East,83,5.7,6.9,56,0.00,CLR,OVC,0.00,WeatherDisplay:10.37,2013-03-18 05:40:00,
2013-03-18 01:43:00,18.2,5.1,30.37,East,85,2.6,4.0,56,0.00,CLR,OVC,0.00,WeatherDisplay:10.37,2013-03-18 05:43:00,
2013-03-18 01:44:00,18.2,5.1,30.37,East,85,3.2,4.6,56,0.00,CLR,OVC,0.00,WeatherDisplay:10.37,2013-03-18 05:44:00,
2013-03-18 01:46:00,18.2,5.1,30.37,East,90,4.4,7.0,56,0.00,CLR,OVC,0.00,WeatherDisplay:10.37,2013-03-18 05:46:00,
2013-03-18 01:48:00,18.2,5.5,30.37,East,82,3.8,4.6,57,0.00,CLR,OVC,0.00,WeatherDisplay:10.37,2013-03-18 05:48:00,
2013-03-18 01:49:00,18.2,5.5,30.37,East,83,4.3,5.8,57,0.00,CLR,OVC,0.00,WeatherDisplay:10.37,2013-03-18 05:49:00,
2013-03-18 01:51:00,18.1,5.4,30.37,East,83,3.8,4.6,57,0.00,CLR,OVC,0.00,WeatherDisplay:10.37,2013-03-18 05:51:00,
2013-03-18 01:53:00,18.2,5.1,30.37,NE,48,4.1,6.9,56,0.00,CLR,OVC,0.00,WeatherDisplay:10.37,2013-03-18 05:53:00,
2013-03-18 01:54:00,18.2,5.1,30.37,NE,48,3.8,5.8,56,0.00,CLR,OVC,0.00,WeatherDisplay:10.37,2013-03-18 05:54:00,
2013-03-18 01:55:00,18.2,5.5,30.37,ENE,63,3.1,6.9,57,0.00,CLR,OVC,0.00,WeatherDisplay:10.37,2013-03-18 05:55:00,
2013-03-18 01:57:00,18.3,5.2,30.37,NE,47,5.0,6.9,56,0.00,CLR,OVC,0.00,WeatherDisplay:10.37,2013-03-18 05:57:00,
2013-03-18 01:58:00,18.4,5.3,30.37,NE,47,2.9,5.8,56,0.00,CLR,OVC,0.00,WeatherDisplay:10.37,2013-03-18 05:58:00,
2013-03-18 01:59:00,18.4,5.3,30.37,NE,51,3.9,6.0,56,0.00,CLR,OVC,0.00,WeatherDisplay:10.37,2013-03-18 05:59:00,
2013-03-18 02:00:00,18.5,5.4,30.37,NE,47,3.3,5.8,56,0.00,CLR,OVC,0.00,WeatherDisplay:10.37,2013-03-18 06:00:00,
2013-03-18 02:02:00,18.5,5.4,30.37,NE,55,3.5,4.6,56,0.00,CLR,OVC,0.00,WeatherDisplay:10.37,2013-03-18 06:02:00,
2013-03-18 02:04:00,18.5,5.4,30.37,NE,56,3.7,4.6,56,0.00,CLR,OVC,0.00,WeatherDisplay:10.37,2013-03-18 06:04:00,
2013-03-18 02:05:00,18.5,5.4,30.37,ENE,59,4.4,5.8,56,0.00,CLR,OVC,0.00,WeatherDisplay:10.37,2013-03-18 06:05:00,
2013-03-18 02:07:00,18.4,5.7,30.37,ENE,61,4.5,5.8,57,0.00,CLR,OVC,0.00,WeatherDisplay:10.37,2013-03-18 06:07:00,
2013-03-18 02:09:00,18.4,5.3,30.37,ENE,61,3.8,5.8,56,0.00,CLR,OVC,0.00,WeatherDisplay:10.37,2013-03-18 06:09:00,
2013-03-18 02:10:00,18.3,5.6,30.37,ENE,61,3.7,4.6,57,0.00,CLR,OVC,0.00,WeatherDisplay:10.37,2013-03-18 06:10:00,
2013-03-18 02:12:00,18.2,5.5,30.37,ENE,61,3.3,4.6,57,0.00,CLR,OVC,0.00,WeatherDisplay:10.37,2013-03-18 06:12:00,
2013-03-18 02:14:00,18.2,5.5,30.38,ENE,61,3.5,4.6,57,0.00,CLR,OVC,0.00,WeatherDisplay:10.37,2013-03-18 06:14:00,
2013-03-18 02:15:00,18.1,5.4,30.38,ENE,61,3.5,4.6,57,0.00,CLR,OVC,0.00,WeatherDisplay:10.37,2013-03-18 06:15:00,
2013-03-18 02:18:00,17.9,5.2,30.38,ENE,61,2.4,4.6,57,0.00,CLR,OVC,0.00,WeatherDisplay:10.37,2013-03-18 06:18:00,
2013-03-18 02:19:00,17.9,5.6,30.38,ENE,61,2.8,4.0,58,0.00,CLR,OVC,0.00,WeatherDisplay:10.37,2013-03-18 06:19:00,
2013-03-18 02:20:00,17.8,5.1,30.38,ENE,61,3.5,4.6,57,0.00,CLR,OVC,0.00,WeatherDisplay:10.37,2013-03-18 06:20:00,
2013-03-18 02:23:00,17.7,5.4,30.38,ENE,61,3.9,4.6,58,0.00,CLR,OVC,0.00,WeatherDisplay:10.37,2013-03-18 06:23:00,
2013-03-18 02:24:00,17.6,5.3,30.38,ENE,61,3.4,4.6,58,0.00,CLR,OVC,0.00,WeatherDisplay:10.37,2013-03-18 06:24:00,
2013-03-18 02:25:00,17.6,5.3,30.38,ENE,61,3.4,4.6,58,0.00,CLR,OVC,0.00,WeatherDisplay:10.37,2013-03-18 06:25:00,
2013-03-18 02:26:00,17.6,5.3,30.38,ENE,61,3.8,4.6,58,0.00,CLR,OVC,0.00,WeatherDisplay:10.37,2013-03-18 06:26:00,
2013-03-18 02:28:00,17.5,5.2,30.38,ENE,61,3.8,5.8,58,0.00,CLR,OVC,0.00,WeatherDisplay:10.37,2013-03-18 06:28:00,
2013-03-18 02:29:00,17.4,5.1,30.38,ENE,61,3.1,4.6,58,0.00,CLR,OVC,0.00,WeatherDisplay:10.37,2013-03-18 06:29:00,
2013-03-18 02:30:00,17.4,5.1,30.38,ENE,61,2.6,4.6,58,0.00,CLR,OVC,0.00,WeatherDisplay:10.37,2013-03-18 06:30:00,
2013-03-18 02:31:00,17.3,5.0,30.38,ENE,61,2.4,3.5,58,0.00,CLR,OVC,0.00,WeatherDisplay:10.37,2013-03-18 06:31:00,
2013-03-18 02:33:00,17.2,5.3,30.38,ENE,61,0.5,3.5,59,0.00,CLR,OVC,0.00,WeatherDisplay:10.37,2013-03-18 06:33:00,
2013-03-18 02:34:00,17.1,5.2,30.38,ENE,61,0.1,1.2,59,0.00,CLR,OVC,0.00,WeatherDisplay:10.37,2013-03-18 06:34:00,
2013-03-18 02:35:00,17.1,5.2,30.38,ENE,61,0.2,2.0,59,0.00,CLR,OVC,0.00,WeatherDisplay:10.37,2013-03-18 06:35:00,
2013-03-18 02:36:00,17.0,5.1,30.38,ENE,61,0.3,2.3,59,0.00,CLR,OVC,0.00,WeatherDisplay:10.37,2013-03-18 06:36:00,
2013-03-18 02:38:00,16.8,5.3,30.38,ENE,61,0.0,1.2,60,0.00,CLR,OVC,0.00,WeatherDisplay:10.37,2013-03-18 06:38:00,
2013-03-18 02:39:00,16.8,5.3,30.38,ENE,61,0.0,1.0,60,0.00,CLR,OVC,0.00,WeatherDisplay:10.37,2013-03-18 06:39:00,
2013-03-18 02:40:00,16.8,4.9,30.38,ENE,61,0.2,1.2,59,0.00,CLR,OVC,0.00,WeatherDisplay:10.37,2013-03-18 06:40:00,
2013-03-18 02:42:00,16.7,5.2,30.38,ENE,61,0.4,1.2,60,0.00,CLR,OVC,0.00,WeatherDisplay:10.37,2013-03-18 06:42:00,
2013-03-18 02:44:00,16.6,4.7,30.38,ENE,61,0.5,2.3,59,0.00,CLR,OVC,0.00,WeatherDisplay:10.37,2013-03-18 06:44:00,
2013-03-18 02:45:00,16.6,5.1,30.38,ENE,61,0.4,2.0,60,0.00,CLR,OVC,0.00,WeatherDisplay:10.37,2013-03-18 06:45:00,
2013-03-18 02:47:00,16.4,4.9,30.38,ENE,61,1.4,2.3,60,0.00,CLR,OVC,0.00,WeatherDisplay:10.37,2013-03-18 06:47:00,
2013-03-18 02:49:00,16.3,4.8,30.38,ENE,61,1.3,2.3,60,0.00,CLR,OVC,0.00,WeatherDisplay:10.37,2013-03-18 06:49:00,
2013-03-18 02:50:00,16.3,4.8,30.38,ENE,62,2.0,3.5,60,0.00,CLR,OVC,0.00,WeatherDisplay:10.37,2013-03-18 06:50:00,
2013-03-18 02:52:00,16.2,4.7,30.38,ENE,61,0.2,2.3,60,0.00,CLR,OVC,0.00,WeatherDisplay:10.37,2013-03-18 06:52:00,
2013-03-18 02:54:00,16.1,5.0,30.38,ENE,61,1.0,2.3,61,0.00,CLR,OVC,0.00,WeatherDisplay:10.37,2013-03-18 06:54:00,
2013-03-18 02:55:00,16.0,4.9,30.38,ENE,61,1.1,2.3,61,0.00,CLR,OVC,0.00,WeatherDisplay:10.37,2013-03-18 06:55:00,
2013-03-18 02:57:00,16.0,4.9,30.38,ENE,61,1.6,3.0,61,0.00,CLR,OVC,0.00,WeatherDisplay:10.37,2013-03-18 06:57:00,
2013-03-18 02:59:00,16.0,5.3,30.38,ENE,61,1.1,3.5,62,0.00,CLR,OVC,0.00,WeatherDisplay:10.37,2013-03-18 06:59:00,
2013-03-18 03:00:00,16.0,5.3,30.38,ENE,61,0.7,2.3,62,0.00,CLR,OVC,0.00,WeatherDisplay:10.37,2013-03-18 07:00:00,
2013-03-18 03:02:00,16.0,5.3,30.38,ENE,61,0.0,0.0,62,0.00,CLR,OVC,0.00,WeatherDisplay:10.37,2013-03-18 07:02:00,
2013-03-18 03:04:00,16.0,5.3,30.38,ENE,61,0.0,0.0,62,0.00,CLR,OVC,0.00,WeatherDisplay:10.37,2013-03-18 07:04:00,
2013-03-18 03:05:00,16.0,5.3,30.37,ENE,61,0.0,0.0,62,0.00,CLR,OVC,0.00,WeatherDisplay:10.37,2013-03-18 07:05:00,
2013-03-18 03:07:00,16.0,5.3,30.37,ENE,61,0.0,1.2,62,0.00,CLR,OVC,0.00,WeatherDisplay:10.37,2013-03-18 07:07:00,
2013-03-18 03:09:00,16.0,5.3,30.37,ENE,61,0.0,0.0,62,0.00,CLR,OVC,0.00,WeatherDisplay:10.37,2013-03-18 07:09:00,
2013-03-18 03:10:00,16.0,5.3,30.37,ENE,61,0.0,0.0,62,0.00,CLR,OVC,0.00,WeatherDisplay:10.37,2013-03-18 07:10:00,
2013-03-18 03:12:00,16.0,5.3,30.37,ENE,61,0.4,1.2,62,0.00,CLR,OVC,0.00,WeatherDisplay:10.37,2013-03-18 07:12:00,
2013-03-18 03:14:00,15.9,5.2,30.38,ENE,61,0.4,2.3,62,0.00,CLR,OVC,0.00,WeatherDisplay:10.37,2013-03-18 07:14:00,
2013-03-18 03:15:00,15.9,5.5,30.37,ENE,62,0.9,1.2,63,0.00,CLR,OVC,0.00,WeatherDisplay:10.37,2013-03-18 07:15:00,
2013-03-18 03:17:00,15.8,5.4,30.37,ENE,61,0.5,2.0,63,0.00,CLR,OVC,0.00,WeatherDisplay:10.37,2013-03-18 07:17:00,
2013-03-18 03:18:00,15.8,5.4,30.37,ENE,61,1.4,2.3,63,0.00,CLR,OVC,0.00,WeatherDisplay:10.37,2013-03-18 07:18:00,
2013-03-18 03:19:00,15.8,5.4,30.37,ENE,61,0.3,2.3,63,0.00,CLR,OVC,0.00,WeatherDisplay:10.37,2013-03-18 07:19:00,
2013-03-18 03:20:00,15.8,5.4,30.37,ENE,61,0.0,0.0,63,0.00,CLR,OVC,0.00,WeatherDisplay:10.37,2013-03-18 07:20:00,
2013-03-18 03:22:00,15.8,5.4,30.37,ENE,61,0.4,1.2,63,0.00,CLR,OVC,0.00,WeatherDisplay:10.37,2013-03-18 07:22:00,
2013-03-18 03:23:00,15.8,5.4,30.37,ENE,61,0.0,1.2,63,0.00,CLR,OVC,0.00,WeatherDisplay:10.37,2013-03-18 07:23:00,
2013-03-18 03:24:00,15.8,5.4,30.37,ENE,61,0.0,0.0,63,0.00,CLR,OVC,0.00,WeatherDisplay:10.37,2013-03-18 07:24:00,
2013-03-18 03:25:00,15.7,5.3,30.37,ENE,61,0.0,0.0,63,0.00,CLR,OVC,0.00,WeatherDisplay:10.37,2013-03-18 07:25:00,
2013-03-18 03:27:00,15.7,5.3,30.37,ENE,62,1.3,2.3,63,0.00,CLR,OVC,0.00,WeatherDisplay:10.37,2013-03-18 07:27:00,
2013-03-18 03:28:00,15.7,5.3,30.37,ENE,61,1.5,2.3,63,0.00,CLR,OVC,0.00,WeatherDisplay:10.37,2013-03-18 07:28:00,
2013-03-18 03:29:00,15.7,5.3,30.37,ENE,61,2.1,3.5,63,0.00,CLR,OVC,0.00,WeatherDisplay:10.37,2013-03-18 07:29:00,
2013-03-18 03:31:00,15.6,5.2,30.37,ENE,61,3.3,3.5,63,0.00,CLR,OVC,0.00,WeatherDisplay:10.37,2013-03-18 07:31:00,
2013-03-18 03:33:00,15.5,5.1,30.37,ENE,61,2.2,3.5,63,0.00,CLR,OVC,0.00,WeatherDisplay:10.37,2013-03-18 07:33:00,
2013-03-18 03:34:00,15.4,5.4,30.36,ENE,61,1.7,3.5,64,0.00,CLR,OVC,0.00,WeatherDisplay:10.37,2013-03-18 07:34:00,
2013-03-18 03:36:00,15.4,5.4,30.37,ENE,61,1.0,2.3,64,0.00,CLR,OVC,0.00,WeatherDisplay:10.37,2013-03-18 07:36:00,
2013-03-18 03:38:00,15.3,5.3,30.37,ENE,61,1.6,2.3,64,0.00,CLR,OVC,0.00,WeatherDisplay:10.37,2013-03-18 07:38:00,
2013-03-18 03:39:00,15.3,5.3,30.38,ENE,61,2.0,2.3,64,0.00,CLR,OVC,0.00,WeatherDisplay:10.37,2013-03-18 07:39:00,
2013-03-18 03:42:00,15.3,5.3,30.38,ENE,61,2.6,3.5,64,0.00,CLR,OVC,0.00,WeatherDisplay:10.37,2013-03-18 07:42:00,
2013-03-18 03:43:00,15.2,5.2,30.38,ENE,61,3.0,3.5,64,0.00,CLR,OVC,0.00,WeatherDisplay:10.37,2013-03-18 07:43:00,
2013-03-18 03:44:00,15.2,5.2,30.38,ENE,61,3.1,3.5,64,0.00,CLR,OVC,0.00,WeatherDisplay:10.37,2013-03-18 07:44:00,
2013-03-18 03:45:00,15.1,5.1,30.37,ENE,61,3.1,3.5,64,0.00,CLR,OVC,0.00,WeatherDisplay:10.37,2013-03-18 07:45:00,
2013-03-18 03:47:00,15.1,5.1,30.37,ENE,61,2.2,3.5,64,0.00,CLR,OVC,0.00,WeatherDisplay:10.37,2013-03-18 07:47:00,
2013-03-18 03:48:00,15.0,5.0,30.37,ENE,62,2.0,3.5,64,0.00,CLR,OVC,0.00,WeatherDisplay:10.37,2013-03-18 07:48:00,
2013-03-18 03:49:00,15.0,5.0,30.38,ENE,61,2.2,3.5,64,0.00,CLR,OVC,0.00,WeatherDisplay:10.37,2013-03-18 07:49:00,
2013-03-18 03:50:00,15.0,5.0,30.38,ENE,61,2.0,3.5,64,0.00,CLR,OVC,0.00,WeatherDisplay:10.37,2013-03-18 07:50:00,
2013-03-18 03:52:00,14.9,4.9,30.38,ENE,61,1.7,2.3,64,0.00,CLR,OVC,0.00,WeatherDisplay:10.37,2013-03-18 07:52:00,
2013-03-18 03:53:00,14.9,4.9,30.38,ENE,61,2.2,3.5,64,0.00,CLR,OVC,0.00,WeatherDisplay:10.37,2013-03-18 07:53:00,
2013-03-18 03:54:00,14.9,5.2,30.38,ENE,61,3.0,3.5,65,0.00,CLR,OVC,0.00,WeatherDisplay:10.37,2013-03-18 07:54:00,
2013-03-18 03:55:00,14.9,5.2,30.38,ENE,61,2.6,3.5,65,0.00,CLR,OVC,0.00,WeatherDisplay:10.37,2013-03-18 07:55:00,
2013-03-18 03:57:00,14.8,5.2,30.38,ENE,61,2.2,3.5,65,0.00,CLR,OVC,0.00,WeatherDisplay:10.37,2013-03-18 07:57:00,
2013-03-18 03:58:00,14.8,5.2,30.38,ENE,61,2.2,3.5,65,0.00,CLR,OVC,0.00,WeatherDisplay:10.37,2013-03-18 07:58:00,
2013-03-18 03:59:00,14.8,5.2,30.38,ENE,61,2.7,3.5,65,0.00,CLR,OVC,0.00,WeatherDisplay:10.37,2013-03-18 07:59:00,
2013-03-18 04:00:00,14.8,5.2,30.38,ENE,61,2.7,3.5,65,0.00,CLR,OVC,0.00,WeatherDisplay:10.37,2013-03-18 08:00:00,
2013-03-18 04:02:00,14.8,5.2,30.38,ENE,61,3.1,3.5,65,0.00,CLR,OVC,0.00,WeatherDisplay:10.37,2013-03-18 08:02:00,
2013-03-18 04:03:00,14.8,5.2,30.38,ENE,61,3.0,3.5,65,0.00,CLR,OVC,0.00,WeatherDisplay:10.37,2013-03-18 08:03:00,
2013-03-18 04:04:00,14.8,5.2,30.38,ENE,61,2.3,3.5,65,0.00,CLR,OVC,0.00,WeatherDisplay:10.37,2013-03-18 08:04:00,
2013-03-18 04:05:00,14.8,5.5,30.38,ENE,61,1.7,3.5,66,0.00,CLR,OVC,0.00,WeatherDisplay:10.37,2013-03-18 08:05:00,
2013-03-18 04:08:00,14.8,5.5,30.38,ENE,61,2.1,3.5,66,0.00,CLR,OVC,0.00,WeatherDisplay:10.37,2013-03-18 08:08:00,
2013-03-18 04:09:00,14.8,5.5,30.38,ENE,61,2.2,3.5,66,0.00,CLR,OVC,0.00,WeatherDisplay:10.37,2013-03-18 08:09:00,
2013-03-18 04:10:00,14.8,5.5,30.38,ENE,61,1.9,3.5,66,0.00,CLR,OVC,0.00,WeatherDisplay:10.37,2013-03-18 08:10:00,
2013-03-18 04:13:00,14.8,5.5,30.38,ENE,61,2.1,3.5,66,0.00,CLR,OVC,0.00,WeatherDisplay:10.37,2013-03-18 08:13:00,
2013-03-18 04:14:00,14.8,5.5,30.38,ENE,61,2.1,3.5,66,0.00,CLR,OVC,0.00,WeatherDisplay:10.37,2013-03-18 08:14:00,
2013-03-18 04:15:00,14.7,5.4,30.38,ENE,61,2.2,3.5,66,0.00,CLR,OVC,0.00,WeatherDisplay:10.37,2013-03-18 08:15:00,
2013-03-18 04:18:00,14.7,5.7,30.38,ENE,61,1.9,3.5,67,0.00,CLR,OVC,0.00,WeatherDisplay:10.37,2013-03-18 08:18:00,
2013-03-18 04:19:00,14.7,5.7,30.39,ENE,61,2.7,3.5,67,0.00,CLR,OVC,0.00,WeatherDisplay:10.37,2013-03-18 08:19:00,
2013-03-18 04:20:00,14.7,5.7,30.39,ENE,61,2.8,3.5,67,0.00,CLR,OVC,0.00,WeatherDisplay:10.37,2013-03-18 08:20:00,
2013-03-18 04:23:00,14.7,5.7,30.38,ENE,61,2.3,3.5,67,0.00,CLR,OVC,0.00,WeatherDisplay:10.37,2013-03-18 08:23:00,
2013-03-18 04:24:00,14.6,5.3,30.38,ENE,61,2.5,3.5,66,0.00,CLR,OVC,0.00,WeatherDisplay:10.37,2013-03-18 08:24:00,
2013-03-18 04:26:00,14.6,5.6,30.38,ENE,61,2.4,3.5,67,0.00,CLR,OVC,0.00,WeatherDisplay:10.37,2013-03-18 08:26:00,
2013-03-18 04:28:00,14.6,5.6,30.39,ENE,61,2.3,3.5,67,0.00,CLR,OVC,0.00,WeatherDisplay:10.37,2013-03-18 08:28:00,
2013-03-18 04:29:00,14.6,5.6,30.39,ENE,61,2.2,3.5,67,0.00,CLR,OVC,0.00,WeatherDisplay:10.37,2013-03-18 08:29:00,
2013-03-18 04:30:00,14.6,5.6,30.39,ENE,61,2.2,3.5,67,0.00,CLR,OVC,0.00,WeatherDisplay:10.37,2013-03-18 08:30:00,
2013-03-18 04:32:00,14.5,5.5,30.39,ENE,61,2.2,3.5,67,0.00,CLR,OVC,0.00,WeatherDisplay:10.37,2013-03-18 08:32:00,
2013-03-18 04:34:00,14.5,5.5,30.39,ENE,61,2.5,3.5,67,0.00,CLR,OVC,0.00,WeatherDisplay:10.37,2013-03-18 08:34:00,
2013-03-18 04:35:00,14.4,5.4,30.39,ENE,61,2.6,3.5,67,0.00,CLR,OVC,0.00,WeatherDisplay:10.37,2013-03-18 08:35:00,
2013-03-18 04:37:00,14.4,5.4,30.39,ENE,61,2.9,3.5,67,0.00,CLR,OVC,0.00,WeatherDisplay:10.37,2013-03-18 08:37:00,
2013-03-18 04:39:00,14.3,5.3,30.39,ENE,61,2.7,3.5,67,0.00,CLR,OVC,0.00,WeatherDisplay:10.37,2013-03-18 08:39:00,
2013-03-18 04:40:00,14.3,5.3,30.39,ENE,61,2.2,3.5,67,0.00,CLR,OVC,0.00,WeatherDisplay:10.37,2013-03-18 08:40:00,
2013-03-18 04:42:00,14.3,5.3,30.39,ENE,61,1.9,2.3,67,0.00,CLR,OVC,0.00,WeatherDisplay:10.37,2013-03-18 08:42:00,
2013-03-18 04:44:00,14.2,5.2,30.39,ENE,61,1.1,2.3,67,0.00,CLR,OVC,0.00,WeatherDisplay:10.37,2013-03-18 08:44:00,
2013-03-18 04:45:00,14.2,5.2,30.39,ENE,61,1.2,2.3,67,0.00,CLR,OVC,0.00,WeatherDisplay:10.37,2013-03-18 08:45:00,
2013-03-18 04:47:00,14.2,5.2,30.39,ENE,61,1.8,3.5,67,0.00,CLR,OVC,0.00,WeatherDisplay:10.37,2013-03-18 08:47:00,
2013-03-18 04:49:00,14.2,5.2,30.40,ENE,61,1.1,2.3,67,0.00,CLR,OVC,0.00,WeatherDisplay:10.37,2013-03-18 08:49:00,
2013-03-18 04:50:00,14.2,5.2,30.39,ENE,61,1.1,2.3,67,0.00,CLR,OVC,0.00,WeatherDisplay:10.37,2013-03-18 08:50:00,
2013-03-18 04:52:00,14.1,5.1,30.40,ENE,61,1.6,2.3,67,0.00,CLR,OVC,0.00,WeatherDisplay:10.37,2013-03-18 08:52:00,
2013-03-18 04:54:00,14.0,5.4,30.40,ENE,61,1.6,2.3,68,0.00,CLR,OVC,0.00,WeatherDisplay:10.37,2013-03-18 08:54:00,
2013-03-18 04:55:00,14.0,5.1,30.40,ENE,61,1.3,2.3,67,0.00,CLR,OVC,0.00,WeatherDisplay:10.37,2013-03-18 08:55:00,
2013-03-18 04:57:00,13.9,5.0,30.39,ENE,61,0.0,1.2,67,0.00,CLR,OVC,0.00,WeatherDisplay:10.37,2013-03-18 08:57:00,
2013-03-18 04:59:00,13.9,5.3,30.39,ENE,61,0.0,1.0,68,0.00,CLR,OVC,0.00,WeatherDisplay:10.37,2013-03-18 08:59:00,
2013-03-18 05:00:00,13.8,5.2,30.39,ENE,61,0.9,1.2,68,0.00,CLR,OVC,0.00,WeatherDisplay:10.37,2013-03-18 09:00:00,
2013-03-18 05:03:00,13.8,5.2,30.39,ENE,61,0.0,0.0,68,0.00,CLR,OVC,0.00,WeatherDisplay:10.37,2013-03-18 09:03:00,
2013-03-18 05:04:00,13.7,4.8,30.39,ENE,61,0.0,0.0,67,0.00,CLR,OVC,0.00,WeatherDisplay:10.37,2013-03-18 09:04:00,
2013-03-18 05:05:00,13.7,5.1,30.39,ENE,61,0.0,0.0,68,0.00,CLR,OVC,0.00,WeatherDisplay:10.37,2013-03-18 09:05:00,
2013-03-18 05:09:00,13.6,5.0,30.39,ENE,61,0.0,0.0,68,0.00,CLR,OVC,0.00,WeatherDisplay:10.37,2013-03-18 09:09:00,
2013-03-18 05:10:00,13.6,5.0,30.39,ENE,61,0.0,0.0,68,0.00,CLR,OVC,0.00,WeatherDisplay:10.37,2013-03-18 09:10:00,
2013-03-18 05:11:00,13.6,5.0,30.39,ENE,61,0.7,2.0,68,0.00,CLR,OVC,0.00,WeatherDisplay:10.37,2013-03-18 09:11:00,
2013-03-18 05:14:00,13.5,5.2,30.39,ENE,61,1.2,2.3,69,0.00,CLR,OVC,0.00,WeatherDisplay:10.37,2013-03-18 09:14:00,
2013-03-18 05:15:00,13.5,5.2,30.39,ENE,61,0.7,2.3,69,0.00,CLR,OVC,0.00,WeatherDisplay:10.37,2013-03-18 09:15:00,
2013-03-18 05:16:00,13.5,5.2,30.39,ENE,61,0.9,2.0,69,0.00,CLR,OVC,0.00,WeatherDisplay:10.37,2013-03-18 09:16:00,
2013-03-18 05:20:00,13.5,5.2,30.39,ENE,61,0.2,1.2,69,0.00,CLR,OVC,0.00,WeatherDisplay:10.37,2013-03-18 09:20:00,
2013-03-18 05:21:00,13.4,5.1,30.40,ENE,61,1.4,2.0,69,0.00,CLR,OVC,0.00,WeatherDisplay:10.37,2013-03-18 09:21:00,
2013-03-18 05:25:00,13.5,5.2,30.40,ENE,61,0.5,1.2,69,0.00,CLR,OVC,0.00,WeatherDisplay:10.37,2013-03-18 09:25:00,
2013-03-18 05:27:00,13.5,5.2,30.40,ENE,61,0.0,0.0,69,0.00,CLR,OVC,0.00,WeatherDisplay:10.37,2013-03-18 09:27:00,
2013-03-18 05:30:00,13.5,5.2,30.40,ENE,61,2.6,4.0,69,0.00,CLR,OVC,0.00,WeatherDisplay:10.37,2013-03-18 09:30:00,
2013-03-18 05:32:00,13.4,5.1,30.40,ENE,62,2.5,3.5,69,0.00,CLR,OVC,0.00,WeatherDisplay:10.37,2013-03-18 09:32:00,
2013-03-18 05:35:00,13.3,5.0,30.40,ENE,61,0.7,2.3,69,0.00,CLR,OVC,0.00,WeatherDisplay:10.37,2013-03-18 09:35:00,
2013-03-18 05:37:00,13.2,4.9,30.40,ENE,61,0.8,2.3,69,0.00,CLR,OVC,0.00,WeatherDisplay:10.37,2013-03-18 09:37:00,
2013-03-18 05:40:00,13.2,4.9,30.40,ENE,61,0.9,2.3,69,0.00,CLR,OVC,0.00,WeatherDisplay:10.37,2013-03-18 09:40:00,
2013-03-18 05:41:00,13.2,4.9,30.40,ENE,61,0.1,2.3,69,0.00,CLR,OVC,0.00,WeatherDisplay:10.37,2013-03-18 09:41:00,
2013-03-18 05:42:00,13.1,4.8,30.40,ENE,61,0.0,0.0,69,0.00,CLR,OVC,0.00,WeatherDisplay:10.37,2013-03-18 09:42:00,
2013-03-18 05:45:00,13.1,4.8,30.40,ENE,61,0.0,0.0,69,0.00,CLR,OVC,0.00,WeatherDisplay:10.37,2013-03-18 09:45:00,
2013-03-18 05:46:00,13.0,4.7,30.40,ENE,61,0.5,2.0,69,0.00,CLR,OVC,0.00,WeatherDisplay:10.37,2013-03-18 09:46:00,
2013-03-18 05:47:00,13.0,4.7,30.40,ENE,61,2.8,3.5,69,0.00,CLR,OVC,0.00,WeatherDisplay:10.37,2013-03-18 09:47:00,
2013-03-18 05:50:00,13.0,4.7,30.40,ENE,61,0.1,2.3,69,0.00,CLR,OVC,0.00,WeatherDisplay:10.37,2013-03-18 09:50:00,
2013-03-18 05:52:00,13.0,4.7,30.40,ENE,61,0.0,0.0,69,0.00,CLR,OVC,0.00,WeatherDisplay:10.37,2013-03-18 09:52:00,
2013-03-18 05:53:00,13.0,4.7,30.40,ENE,61,0.0,0.0,69,0.00,CLR,OVC,0.00,WeatherDisplay:10.37,2013-03-18 09:53:00,
2013-03-18 05:55:00,13.0,4.7,30.40,ENE,61,0.0,0.0,69,0.00,CLR,OVC,0.00,WeatherDisplay:10.37,2013-03-18 09:55:00,
2013-03-18 05:57:00,13.0,4.7,30.41,ENE,61,0.1,1.0,69,0.00,CLR,OVC,0.00,WeatherDisplay:10.37,2013-03-18 09:57:00,
2013-03-18 05:58:00,12.9,4.6,30.41,ENE,61,0.7,1.2,69,0.00,CLR,OVC,0.00,WeatherDisplay:10.37,2013-03-18 09:58:00,
2013-03-18 06:00:00,12.8,4.5,30.41,ENE,62,0.5,2.0,69,0.00,CLR,OVC,0.00,WeatherDisplay:10.37,2013-03-18 10:00:00,
2013-03-18 06:02:00,12.8,4.5,30.41,ENE,61,2.2,3.5,69,0.00,CLR,OVC,0.00,WeatherDisplay:10.37,2013-03-18 10:02:00,
2013-03-18 06:03:00,12.7,4.4,30.41,ENE,61,2.1,3.5,69,0.00,CLR,OVC,0.00,WeatherDisplay:10.37,2013-03-18 10:03:00,
2013-03-18 06:05:00,12.6,4.3,30.41,ENE,61,1.7,3.5,69,0.00,CLR,OVC,0.00,WeatherDisplay:10.37,2013-03-18 10:05:00,
2013-03-18 06:07:00,12.5,4.3,30.42,ENE,61,2.5,3.5,69,0.00,CLR,OVC,0.00,WeatherDisplay:10.37,2013-03-18 10:07:00,
2013-03-18 06:08:00,12.5,4.6,30.42,ENE,61,2.0,3.5,70,0.00,CLR,OVC,0.00,WeatherDisplay:10.37,2013-03-18 10:08:00,
2013-03-18 06:10:00,12.4,4.5,30.41,ENE,61,2.7,3.5,70,0.00,CLR,OVC,0.00,WeatherDisplay:10.37,2013-03-18 10:10:00,
2013-03-18 06:11:00,12.4,4.5,30.42,ENE,61,2.8,3.5,70,0.00,CLR,OVC,0.00,WeatherDisplay:10.37,2013-03-18 10:11:00,
2013-03-18 06:12:00,12.4,4.5,30.42,ENE,61,2.3,3.5,70,0.00,CLR,OVC,0.00,WeatherDisplay:10.37,2013-03-18 10:12:00,
2013-03-18 06:13:00,12.3,4.4,30.42,ENE,61,2.3,3.5,70,0.00,CLR,OVC,0.00,WeatherDisplay:10.37,2013-03-18 10:13:00,
2013-03-18 06:15:00,12.3,4.4,30.42,ENE,61,2.5,3.5,70,0.00,CLR,OVC,0.00,WeatherDisplay:10.37,2013-03-18 10:15:00,
2013-03-18 06:16:00,12.3,4.4,30.42,ENE,61,2.6,3.5,70,0.00,CLR,OVC,0.00,WeatherDisplay:10.37,2013-03-18 10:16:00,
2013-03-18 06:18:00,12.3,4.4,30.42,ENE,62,2.0,3.5,70,0.00,CLR,OVC,0.00,WeatherDisplay:10.37,2013-03-18 10:18:00,
2013-03-18 06:20:00,12.3,4.4,30.42,ENE,61,0.3,2.3,70,0.00,CLR,OVC,0.00,WeatherDisplay:10.37,2013-03-18 10:20:00,
2013-03-18 06:22:00,12.3,4.7,30.42,ENE,61,0.0,1.2,71,0.00,CLR,OVC,0.00,WeatherDisplay:10.37,2013-03-18 10:22:00,
2013-03-18 06:23:00,12.3,4.4,30.42,ENE,61,0.0,0.0,70,0.00,CLR,OVC,0.00,WeatherDisplay:10.37,2013-03-18 10:23:00,
2013-03-18 06:24:00,12.3,4.7,30.43,ENE,61,0.7,2.3,71,0.00,CLR,OVC,0.00,WeatherDisplay:10.37,2013-03-18 10:24:00,
2013-03-18 06:25:00,12.3,4.7,30.42,ENE,61,2.1,3.0,71,0.00,CLR,OVC,0.00,WeatherDisplay:10.37,2013-03-18 10:25:00,
2013-03-18 06:27:00,12.2,4.6,30.42,ENE,61,2.9,4.0,71,0.00,CLR,OVC,0.00,WeatherDisplay:10.37,2013-03-18 10:27:00,
2013-03-18 06:28:00,12.2,4.6,30.42,ENE,61,3.0,3.5,71,0.00,CLR,OVC,0.00,WeatherDisplay:10.37,2013-03-18 10:28:00,
2013-03-18 06:29:00,12.2,4.6,30.42,ENE,61,2.8,3.5,71,0.00,CLR,OVC,0.00,WeatherDisplay:10.37,2013-03-18 10:29:00,
2013-03-18 06:31:00,12.2,4.6,30.42,ENE,62,1.9,3.5,71,0.00,CLR,OVC,0.00,WeatherDisplay:10.37,2013-03-18 10:31:00,
2013-03-18 06:32:00,12.2,4.6,30.43,ENE,61,1.8,3.5,71,0.00,CLR,OVC,0.00,WeatherDisplay:10.37,2013-03-18 10:32:00,
2013-03-18 06:33:00,12.1,4.5,30.42,ENE,61,2.4,3.5,71,0.00,CLR,OVC,0.00,WeatherDisplay:10.37,2013-03-18 10:33:00,
2013-03-18 06:34:00,12.1,4.5,30.43,ENE,61,2.3,3.5,71,0.00,CLR,OVC,0.00,WeatherDisplay:10.37,2013-03-18 10:34:00,
2013-03-18 06:36:00,12.1,4.5,30.43,ENE,61,2.7,3.5,71,0.00,CLR,OVC,0.00,WeatherDisplay:10.37,2013-03-18 10:36:00,
2013-03-18 06:38:00,12.1,4.5,30.43,ENE,61,2.6,3.5,71,0.00,CLR,OVC,0.00,WeatherDisplay:10.37,2013-03-18 10:38:00,
2013-03-18 06:39:00,12.0,4.4,30.43,ENE,61,2.6,3.5,71,0.00,CLR,OVC,0.00,WeatherDisplay:10.37,2013-03-18 10:39:00,
2013-03-18 06:41:00,12.0,4.4,30.43,ENE,61,3.1,3.5,71,0.00,CLR,OVC,0.00,WeatherDisplay:10.37,2013-03-18 10:41:00,
2013-03-18 06:43:00,12.0,4.4,30.43,ENE,61,2.1,3.5,71,0.00,CLR,OVC,0.00,WeatherDisplay:10.37,2013-03-18 10:43:00,
2013-03-18 06:44:00,12.0,4.4,30.43,ENE,61,0.3,2.3,71,0.00,CLR,OVC,0.00,WeatherDisplay:10.37,2013-03-18 10:44:00,
2013-03-18 06:46:00,12.0,4.4,30.43,ENE,61,0.0,1.2,71,0.00,CLR,OVC,0.00,WeatherDisplay:10.37,2013-03-18 10:46:00,
2013-03-18 06:48:00,12.1,4.5,30.43,ENE,62,0.0,0.0,71,0.00,CLR,OVC,0.00,WeatherDisplay:10.37,2013-03-18 10:48:00,
2013-03-18 06:49:00,12.1,4.8,30.43,ENE,61,0.0,0.0,72,0.00,CLR,OVC,0.00,WeatherDisplay:10.37,2013-03-18 10:49:00,
2013-03-18 06:52:00,12.1,4.8,30.43,ENE,61,0.0,0.0,72,0.00,CLR,OVC,0.00,WeatherDisplay:10.37,2013-03-18 10:52:00,
2013-03-18 06:53:00,12.1,4.8,30.43,ENE,61,0.9,2.3,72,0.00,CLR,OVC,0.00,WeatherDisplay:10.37,2013-03-18 10:53:00,
2013-03-18 06:55:00,12.2,4.9,30.43,ENE,61,1.9,2.3,72,0.00,CLR,OVC,0.00,WeatherDisplay:10.37,2013-03-18 10:55:00,
2013-03-18 06:57:00,12.2,4.9,30.43,ENE,61,1.1,2.3,72,0.00,CLR,OVC,0.00,WeatherDisplay:10.37,2013-03-18 10:57:00,
2013-03-18 06:58:00,12.2,4.9,30.43,ENE,61,1.1,2.3,72,0.00,CLR,OVC,0.00,WeatherDisplay:10.37,2013-03-18 10:58:00,
2013-03-18 07:00:00,12.2,4.9,30.43,ENE,61,1.0,1.2,72,0.00,CLR,OVC,0.00,WeatherDisplay:10.37,2013-03-18 11:00:00,
2013-03-18 07:03:00,12.2,4.9,30.43,ENE,61,0.8,1.2,72,0.00,CLR,OVC,0.00,WeatherDisplay:10.37,2013-03-18 11:03:00,
2013-03-18 07:05:00,12.4,5.1,30.43,ENE,61,1.1,2.3,72,0.00,CLR,OVC,0.00,WeatherDisplay:10.37,2013-03-18 11:05:00,
2013-03-18 07:08:00,12.4,5.1,30.44,ENE,61,1.1,2.3,72,0.00,CLR,OVC,0.00,WeatherDisplay:10.37,2013-03-18 11:08:00,
2013-03-18 07:10:00,12.5,5.2,30.43,ENE,61,0.7,2.0,72,0.00,CLR,OVC,0.00,WeatherDisplay:10.37,2013-03-18 11:10:00,
2013-03-18 07:13:00,12.6,5.3,30.44,ENE,61,1.4,2.3,72,0.00,CLR,OVC,0.00,WeatherDisplay:10.37,2013-03-18 11:13:00,
2013-03-18 07:15:00,12.6,5.6,30.44,ENE,61,1.1,2.3,73,0.00,CLR,OVC,0.00,WeatherDisplay:10.37,2013-03-18 11:15:00,
2013-03-18 07:18:00,12.7,5.4,30.44,ENE,61,1.1,2.3,72,0.00,CLR,OVC,0.00,WeatherDisplay:10.37,2013-03-18 11:18:00,
2013-03-18 07:19:00,12.7,5.4,30.44,ENE,61,1.0,2.3,72,0.00,CLR,OVC,0.00,WeatherDisplay:10.37,2013-03-18 11:19:00,
2013-03-18 07:20:00,12.7,5.4,30.44,ENE,61,1.4,2.3,72,0.00,CLR,OVC,0.00,WeatherDisplay:10.37,2013-03-18 11:20:00,
2013-03-18 07:23:00,12.7,5.4,30.44,ENE,61,1.2,2.3,72,0.00,CLR,OVC,0.00,WeatherDisplay:10.37,2013-03-18 11:23:00,
2013-03-18 07:24:00,12.7,5.7,30.44,ENE,61,1.2,2.3,73,0.00,CLR,OVC,0.00,WeatherDisplay:10.37,2013-03-18 11:24:00,
2013-03-18 07:26:00,12.7,5.7,30.44,ENE,61,1.7,2.3,73,0.00,CLR,OVC,0.00,WeatherDisplay:10.37,2013-03-18 11:26:00,
2013-03-18 07:28:00,12.7,5.7,30.44,ENE,61,0.8,2.3,73,0.00,CLR,OVC,0.00,WeatherDisplay:10.37,2013-03-18 11:28:00,
2013-03-18 07:29:00,12.7,5.7,30.44,ENE,61,0.8,1.2,73,0.00,CLR,OVC,0.00,WeatherDisplay:10.37,2013-03-18 11:29:00,
2013-03-18 07:32:00,12.7,5.4,30.44,ENE,61,0.0,0.0,72,0.00,CLR,OVC,0.00,WeatherDisplay:10.37,2013-03-18 11:32:00,
2013-03-18 07:33:00,12.6,5.6,30.44,ENE,61,0.0,1.2,73,0.00,CLR,OVC,0.00,WeatherDisplay:10.37,2013-03-18 11:33:00,
2013-03-18 07:34:00,12.6,5.3,30.44,ENE,62,0.0,0.0,72,0.00,CLR,OVC,0.00,WeatherDisplay:10.37,2013-03-18 11:34:00,
2013-03-18 07:37:00,12.5,5.5,30.44,ENE,61,0.9,2.0,73,0.00,CLR,OVC,0.00,WeatherDisplay:10.37,2013-03-18 11:37:00,
2013-03-18 07:38:00,12.5,5.2,30.44,ENE,61,1.2,2.3,72,0.00,CLR,OVC,0.00,WeatherDisplay:10.37,2013-03-18 11:38:00,
2013-03-18 07:39:00,12.5,5.2,30.44,ENE,62,1.2,2.3,72,0.00,CLR,OVC,0.00,WeatherDisplay:10.37,2013-03-18 11:39:00,
2013-03-18 07:42:00,12.4,5.4,30.44,ENE,61,0.9,2.0,73,0.00,CLR,OVC,0.00,WeatherDisplay:10.37,2013-03-18 11:42:00,
2013-03-18 07:44:00,12.4,5.4,30.44,ENE,61,1.0,2.3,73,0.00,CLR,OVC,0.00,WeatherDisplay:10.37,2013-03-18 11:44:00,
2013-03-18 07:47:00,12.4,5.4,30.44,ENE,61,1.0,2.3,73,0.00,CLR,OVC,0.00,WeatherDisplay:10.37,2013-03-18 11:47:00,
2013-03-18 07:49:00,12.4,5.4,30.43,ENE,61,0.2,1.2,73,0.00,CLR,OVC,0.00,WeatherDisplay:10.37,2013-03-18 11:49:00,
2013-03-18 07:52:00,12.5,5.5,30.44,ENE,61,0.0,0.0,73,0.00,CLR,OVC,0.00,WeatherDisplay:10.37,2013-03-18 11:52:00,
2013-03-18 07:54:00,12.5,5.5,30.44,ENE,61,0.0,0.0,73,0.00,CLR,OVC,0.00,WeatherDisplay:10.37,2013-03-18 11:54:00,
2013-03-18 07:58:00,12.6,5.9,30.44,ENE,62,0.0,0.0,74,0.00,CLR,OVC,0.00,WeatherDisplay:10.37,2013-03-18 11:58:00,
2013-03-18 07:59:00,12.6,5.6,30.44,ENE,61,0.0,0.0,73,0.00,CLR,OVC,0.00,WeatherDisplay:10.37,2013-03-18 11:59:00,
2013-03-18 08:03:00,12.7,5.7,30.44,ENE,61,0.0,0.0,73,0.00,CLR,OVC,0.00,WeatherDisplay:10.37,2013-03-18 12:03:00,
2013-03-18 08:04:00,12.7,6.0,30.44,ENE,61,0.0,0.0,74,0.00,CLR,OVC,0.00,WeatherDisplay:10.37,2013-03-18 12:04:00,
2013-03-18 08:05:00,12.7,6.0,30.44,ENE,61,0.0,0.0,74,0.00,CLR,OVC,0.00,WeatherDisplay:10.37,2013-03-18 12:05:00,
2013-03-18 08:08:00,12.9,6.2,30.44,ENE,61,0.0,0.0,74,0.00,CLR,OVC,0.00,WeatherDisplay:10.37,2013-03-18 12:08:00,
2013-03-18 08:10:00,12.9,6.2,30.44,ENE,61,0.0,0.0,74,0.00,CLR,OVC,0.00,WeatherDisplay:10.37,2013-03-18 12:10:00,
2013-03-18 08:13:00,13.0,6.3,30.44,ENE,61,0.0,0.0,74,0.00,CLR,OVC,0.00,WeatherDisplay:10.37,2013-03-18 12:13:00,
2013-03-18 08:15:00,13.2,6.5,30.44,ENE,61,0.0,0.0,74,0.00,CLR,OVC,0.00,WeatherDisplay:10.37,2013-03-18 12:15:00,
2013-03-18 08:16:00,13.2,6.5,30.44,ENE,61,0.0,0.0,74,0.00,CLR,OVC,0.00,WeatherDisplay:10.37,2013-03-18 12:16:00,
2013-03-18 08:18:00,13.3,6.6,30.44,ENE,61,0.1,1.2,74,0.00,CLR,OVC,0.00,WeatherDisplay:10.37,2013-03-18 12:18:00,
2013-03-18 08:20:00,13.5,6.8,30.44,ENE,61,0.0,1.2,74,0.00,CLR,OVC,0.00,WeatherDisplay:10.37,2013-03-18 12:20:00,
2013-03-18 08:21:00,13.5,6.8,30.44,ENE,61,0.0,0.0,74,0.00,CLR,OVC,0.00,WeatherDisplay:10.37,2013-03-18 12:21:00,
2013-03-18 08:22:00,13.6,6.8,30.44,ENE,61,0.0,0.0,74,0.00,CLR,OVC,0.00,WeatherDisplay:10.37,2013-03-18 12:22:00,
2013-03-18 08:23:00,13.6,6.8,30.44,ENE,61,0.0,0.0,74,0.00,CLR,OVC,0.00,WeatherDisplay:10.37,2013-03-18 12:23:00,
2013-03-18 08:25:00,13.8,7.0,30.44,ENE,61,0.0,0.0,74,0.00,CLR,OVC,0.00,WeatherDisplay:10.37,2013-03-18 12:25:00,
2013-03-18 08:26:00,13.8,7.0,30.44,ENE,61,0.0,0.0,74,0.00,CLR,OVC,0.00,WeatherDisplay:10.37,2013-03-18 12:26:00,
2013-03-18 08:27:00,13.8,7.0,30.44,ENE,61,0.0,0.0,74,0.00,CLR,OVC,0.00,WeatherDisplay:10.37,2013-03-18 12:27:00,
2013-03-18 08:28:00,13.8,7.0,30.44,ENE,61,0.0,0.0,74,0.00,CLR,OVC,0.00,WeatherDisplay:10.37,2013-03-18 12:28:00,
2013-03-18 08:31:00,14.1,7.3,30.44,ENE,61,0.0,0.0,74,0.00,CLR,OVC,0.00,WeatherDisplay:10.37,2013-03-18 12:31:00,
2013-03-18 08:32:00,14.2,7.4,30.44,ENE,61,0.0,0.0,74,0.00,CLR,OVC,0.00,WeatherDisplay:10.37,2013-03-18 12:32:00,
2013-03-18 08:33:00,14.3,7.5,30.44,ENE,61,0.0,0.0,74,0.00,CLR,OVC,0.00,WeatherDisplay:10.37,2013-03-18 12:33:00,
2013-03-18 08:36:00,14.4,7.9,30.44,ENE,61,0.0,0.0,75,0.00,CLR,OVC,0.00,WeatherDisplay:10.37,2013-03-18 12:36:00,
2013-03-18 08:37:00,14.6,8.1,30.44,ENE,61,0.0,0.0,75,0.00,CLR,OVC,0.00,WeatherDisplay:10.37,2013-03-18 12:37:00,
2013-03-18 08:38:00,14.6,8.1,30.44,ENE,61,0.1,0.0,75,0.00,CLR,OVC,0.00,WeatherDisplay:10.37,2013-03-18 12:38:00,
2013-03-18 08:41:00,15.0,8.5,30.44,ENE,61,0.2,1.2,75,0.00,CLR,OVC,0.00,WeatherDisplay:10.37,2013-03-18 12:41:00,
2013-03-18 08:43:00,15.3,8.8,30.44,ENE,61,1.3,2.3,75,0.00,CLR,OVC,0.00,WeatherDisplay:10.37,2013-03-18 12:43:00,
2013-03-18 08:46:00,15.8,9.3,30.44,ENE,61,1.5,2.3,75,0.00,CLR,OVC,0.00,WeatherDisplay:10.37,2013-03-18 12:46:00,
2013-03-18 08:47:00,15.9,9.4,30.44,ENE,61,0.9,2.3,75,0.00,CLR,OVC,0.00,WeatherDisplay:10.37,2013-03-18 12:47:00,
2013-03-18 08:48:00,16.1,9.6,30.44,ENE,61,0.5,1.2,75,0.00,CLR,OVC,0.00,WeatherDisplay:10.37,2013-03-18 12:48:00,
2013-03-18 08:51:00,16.5,10.0,30.44,ENE,61,0.3,1.2,75,0.00,CLR,OVC,0.00,WeatherDisplay:10.37,2013-03-18 12:51:00,
2013-03-18 08:52:00,16.6,10.1,30.44,ENE,61,0.6,1.2,75,0.00,CLR,OVC,0.00,WeatherDisplay:10.37,2013-03-18 12:52:00,
2013-03-18 08:53:00,16.7,10.1,30.44,ENE,61,0.3,1.2,75,0.00,CLR,OVC,0.00,WeatherDisplay:10.37,2013-03-18 12:53:00,
2013-03-18 08:56:00,17.1,10.5,30.44,ENE,61,1.3,2.0,75,0.00,CLR,OVC,0.00,WeatherDisplay:10.37,2013-03-18 12:56:00,
2013-03-18 08:57:00,17.1,10.5,30.44,ENE,61,1.8,3.5,75,0.00,CLR,OVC,0.00,WeatherDisplay:10.37,2013-03-18 12:57:00,
2013-03-18 08:58:00,17.3,10.7,30.44,ENE,61,1.5,3.0,75,0.00,CLR,OVC,0.00,WeatherDisplay:10.37,2013-03-18 12:58:00,
2013-03-18 09:01:00,17.8,11.2,30.44,ENE,61,2.1,3.5,75,0.00,CLR,OVC,0.00,WeatherDisplay:10.37,2013-03-18 13:01:00,
2013-03-18 09:02:00,17.9,11.3,30.44,ENE,61,1.8,3.5,75,0.00,CLR,OVC,0.00,WeatherDisplay:10.37,2013-03-18 13:02:00,
2013-03-18 09:03:00,18.1,11.5,30.44,ENE,61,2.3,3.5,75,0.00,CLR,OVC,0.00,WeatherDisplay:10.37,2013-03-18 13:03:00,
2013-03-18 09:04:00,18.2,11.6,30.44,ENE,61,1.9,3.5,75,0.00,CLR,OVC,0.00,WeatherDisplay:10.37,2013-03-18 13:04:00,
2013-03-18 09:07:00,18.7,11.8,30.44,ENE,61,1.3,3.5,74,0.00,CLR,OVC,0.00,WeatherDisplay:10.37,2013-03-18 13:07:00,
2013-03-18 09:08:00,18.9,11.7,30.44,ENE,61,1.1,3.5,73,0.00,CLR,OVC,0.00,WeatherDisplay:10.37,2013-03-18 13:08:00,
2013-03-18 09:09:00,18.9,11.7,30.44,ENE,61,0.7,2.3,73,0.00,CLR,OVC,0.00,WeatherDisplay:10.37,2013-03-18 13:09:00,
2013-03-18 09:12:00,19.3,11.7,30.44,ENE,61,0.9,3.5,72,0.00,CLR,OVC,0.00,WeatherDisplay:10.37,2013-03-18 13:12:00,
2013-03-18 09:13:00,19.5,11.9,30.44,ENE,61,1.2,3.5,72,0.00,CLR,OVC,0.00,WeatherDisplay:10.37,2013-03-18 13:13:00,
2013-03-18 09:14:00,19.5,11.6,30.44,ENE,61,0.3,2.3,71,0.00,CLR,OVC,0.00,WeatherDisplay:10.37,2013-03-18 13:14:00,
2013-03-18 09:17:00,19.8,11.6,30.45,ENE,61,0.1,1.2,70,0.00,CLR,OVC,0.00,WeatherDisplay:10.37,2013-03-18 13:17:00,
2013-03-18 09:18:00,19.9,11.7,30.45,ENE,61,0.0,1.2,70,0.00,CLR,OVC,0.00,WeatherDisplay:10.37,2013-03-18 13:18:00,
2013-03-18 09:19:00,20.0,11.8,30.45,ENE,61,1.3,4.0,70,0.00,CLR,OVC,0.00,WeatherDisplay:10.37,2013-03-18 13:19:00,
2013-03-18 09:22:00,20.6,12.4,30.45,SE,146,4.8,5.8,70,0.00,CLR,OVC,0.00,WeatherDisplay:10.37,2013-03-18 13:22:00,
2013-03-18 09:23:00,20.9,12.3,30.45,SSW,206,5.8,6.9,69,0.00,CLR,OVC,0.00,WeatherDisplay:10.37,2013-03-18 13:23:00,
2013-03-18 09:24:00,21.0,12.4,30.45,SSW,207,5.6,8.1,69,0.00,CLR,OVC,0.00,WeatherDisplay:10.37,2013-03-18 13:24:00,
2013-03-18 09:27:00,21.3,12.4,30.45,SSW,210,5.1,6.9,68,0.00,CLR,OVC,0.00,WeatherDisplay:10.37,2013-03-18 13:27:00,
2013-03-18 09:28:00,21.5,12.6,30.45,SSW,211,6.1,6.9,68,0.00,CLR,OVC,0.00,WeatherDisplay:10.37,2013-03-18 13:28:00,
2013-03-18 09:29:00,21.6,12.7,30.45,SSW,213,6.4,6.9,68,0.00,CLR,OVC,0.00,WeatherDisplay:10.37,2013-03-18 13:29:00,
2013-03-18 09:33:00,22.0,12.7,30.45,SW,216,6.0,6.9,67,0.00,CLR,OVC,0.00,WeatherDisplay:10.37,2013-03-18 13:33:00,
2013-03-18 09:34:00,22.1,12.8,30.45,SW,216,5.9,8.1,67,0.00,CLR,OVC,0.00,WeatherDisplay:10.37,2013-03-18 13:34:00,
2013-03-18 09:38:00,22.4,12.8,30.45,SW,217,5.0,7.0,66,0.00,CLR,OVC,0.00,WeatherDisplay:10.37,2013-03-18 13:38:00,
2013-03-18 09:40:00,22.5,12.8,30.45,SW,217,5.9,8.1,66,0.00,CLR,OVC,0.00,WeatherDisplay:10.37,2013-03-18 13:40:00,
2013-03-18 09:43:00,22.7,13.0,30.45,SW,217,6.5,8.1,66,0.00,CLR,OVC,0.00,WeatherDisplay:10.37,2013-03-18 13:43:00,
2013-03-18 09:44:00,22.8,13.1,30.45,SW,217,6.2,8.1,66,0.00,CLR,OVC,0.00,WeatherDisplay:10.37,2013-03-18 13:44:00,
2013-03-18 09:45:00,22.8,12.8,30.45,SW,217,6.2,6.9,65,0.00,CLR,OVC,0.00,WeatherDisplay:10.37,2013-03-18 13:45:00,
2013-03-18 09:48:00,23.0,12.6,30.45,SW,217,5.0,6.9,64,0.00,CLR,OVC,0.00,WeatherDisplay:10.37,2013-03-18 13:48:00,
2013-03-18 09:49:00,23.0,12.6,30.44,SW,217,4.5,6.9,64,0.00,CLR,OVC,0.00,WeatherDisplay:10.37,2013-03-18 13:49:00,
2013-03-18 09:50:00,23.1,12.4,30.44,SW,217,2.9,3.5,63,0.00,CLR,OVC,0.00,WeatherDisplay:10.37,2013-03-18 13:50:00,
2013-03-18 09:53:00,23.4,12.6,30.44,SW,217,3.8,4.6,63,0.00,CLR,OVC,0.00,WeatherDisplay:10.37,2013-03-18 13:53:00,
2013-03-18 09:54:00,23.4,12.6,30.44,SW,217,3.8,5.8,63,0.00,CLR,OVC,0.00,WeatherDisplay:10.37,2013-03-18 13:54:00,
2013-03-18 09:55:00,23.6,12.8,30.44,SW,217,3.8,4.6,63,0.00,CLR,OVC,0.00,WeatherDisplay:10.37,2013-03-18 13:55:00,
2013-03-18 09:58:00,23.8,12.3,30.44,SW,217,2.7,5.8,61,0.00,CLR,OVC,0.00,WeatherDisplay:10.37,2013-03-18 13:58:00,
2013-03-18 09:59:00,23.9,12.4,30.44,SW,217,3.0,6.0,61,0.00,CLR,OVC,0.00,WeatherDisplay:10.37,2013-03-18 13:59:00,
2013-03-18 10:00:00,23.9,12.0,30.45,SW,217,4.2,6.9,60,0.00,CLR,OVC,0.00,WeatherDisplay:10.37,2013-03-18 14:00:00,
2013-03-18 10:04:00,24.2,11.9,30.44,SSW,209,4.5,6.9,59,0.00,CLR,OVC,0.00,WeatherDisplay:10.37,2013-03-18 14:04:00,
2013-03-18 10:05:00,24.3,12.0,30.45,SSW,209,3.9,6.0,59,0.00,CLR,OVC,0.00,WeatherDisplay:10.37,2013-03-18 14:05:00,
2013-03-18 10:09:00,24.4,11.3,30.44,SSW,212,4.6,5.8,57,0.00,CLR,OVC,0.00,WeatherDisplay:10.37,2013-03-18 14:09:00,
2013-03-18 10:10:00,24.4,11.3,30.44,SSW,212,3.2,5.8,57,0.00,CLR,OVC,0.00,WeatherDisplay:10.37,2013-03-18 14:10:00,
2013-03-18 10:14:00,24.7,12.0,30.44,SSW,212,5.1,6.0,58,0.00,CLR,OVC,0.00,WeatherDisplay:10.37,2013-03-18 14:14:00,
2013-03-18 10:16:00,24.8,12.1,30.44,SSW,212,4.7,5.8,58,0.00,CLR,OVC,0.00,WeatherDisplay:10.37,2013-03-18 14:16:00,
2013-03-18 10:19:00,25.1,12.0,30.44,SSW,212,2.5,4.6,57,0.00,CLR,OVC,0.00,WeatherDisplay:10.37,2013-03-18 14:19:00,
2013-03-18 10:21:00,25.2,12.1,30.44,SW,214,4.4,5.8,57,0.00,CLR,OVC,0.00,WeatherDisplay:10.37,2013-03-18 14:21:00,
2013-03-18 10:24:00,25.3,12.2,30.44,SW,215,2.7,4.6,57,0.00,CLR,OVC,0.00,WeatherDisplay:10.37,2013-03-18 14:24:00,
2013-03-18 10:25:00,25.4,12.3,30.44,SW,214,2.7,7.0,57,0.00,CLR,OVC,0.00,WeatherDisplay:10.37,2013-03-18 14:25:00,
2013-03-18 10:26:00,25.5,12.4,30.44,SW,215,5.3,7.0,57,0.00,CLR,OVC,0.00,WeatherDisplay:10.37,2013-03-18 14:26:00,
2013-03-18 10:30:00,25.9,12.7,30.44,SW,220,6.3,7.0,57,0.00,CLR,OVC,0.00,WeatherDisplay:10.37,2013-03-18 14:30:00,
2013-03-18 10:31:00,25.9,12.3,30.44,SW,221,6.6,8.1,56,0.00,CLR,OVC,0.00,WeatherDisplay:10.37,2013-03-18 14:31:00,
2013-03-18 10:35:00,26.0,11.6,30.44,SW,219,5.1,8.1,54,0.00,CLR,OVC,0.00,WeatherDisplay:10.37,2013-03-18 14:35:00,
2013-03-18 10:36:00,26.0,11.6,30.44,SW,219,4.0,5.8,54,0.00,CLR,OVC,0.00,WeatherDisplay:10.37,2013-03-18 14:36:00,
2013-03-18 10:40:00,26.1,11.7,30.44,SW,222,3.6,7.0,54,0.00,CLR,OVC,0.00,WeatherDisplay:10.37,2013-03-18 14:40:00,
2013-03-18 10:41:00,26.1,11.3,30.44,SW,226,5.1,8.1,53,0.00,CLR,OVC,0.00,WeatherDisplay:10.37,2013-03-18 14:41:00,
2013-03-18 10:45:00,26.1,11.3,30.44,SW,229,6.1,8.1,53,0.00,CLR,OVC,0.00,WeatherDisplay:10.37,2013-03-18 14:45:00,
2013-03-18 10:46:00,26.2,10.9,30.44,SW,229,4.4,9.2,52,0.00,CLR,OVC,0.00,WeatherDisplay:10.37,2013-03-18 14:46:00,
2013-03-18 10:50:00,26.3,11.0,30.43,SW,229,2.7,4.0,52,0.00,CLR,OVC,0.00,WeatherDisplay:10.37,2013-03-18 14:50:00,
2013-03-18 10:52:00,26.4,10.7,30.43,SW,229,4.0,5.8,51,0.00,CLR,OVC,0.00,WeatherDisplay:10.37,2013-03-18 14:52:00,
2013-03-18 10:55:00,26.5,10.3,30.43,SW,228,4.6,6.0,50,0.00,CLR,OVC,0.00,WeatherDisplay:10.37,2013-03-18 14:55:00,
2013-03-18 10:57:00,26.6,10.4,30.43,SW,223,4.5,6.0,50,0.00,CLR,OVC,0.00,WeatherDisplay:10.37,2013-03-18 14:57:00,
2013-03-18 11:00:00,26.7,10.5,30.43,SW,223,3.3,4.6,50,0.00,CLR,OVC,0.00,WeatherDisplay:10.37,2013-03-18 15:00:00,
2013-03-18 11:01:00,26.7,10.5,30.43,SW,223,3.3,4.6,50,0.00,CLR,OVC,0.00,WeatherDisplay:10.37,2013-03-18 15:01:00,
2013-03-18 11:02:00,26.8,11.1,30.43,SW,225,5.4,8.1,51,0.00,CLR,OVC,0.00,WeatherDisplay:10.37,2013-03-18 15:02:00,
2013-03-18 11:06:00,27.0,10.8,30.43,SW,225,3.8,4.6,50,0.00,CLR,OVC,0.00,WeatherDisplay:10.37,2013-03-18 15:06:00,
2013-03-18 11:07:00,27.1,10.9,30.42,SW,225,3.1,4.6,50,0.00,CLR,OVC,0.00,WeatherDisplay:10.37,2013-03-18 15:07:00,
2013-03-18 11:11:00,27.4,10.7,30.42,SW,225,3.8,4.6,49,0.00,CLR,OVC,0.00,WeatherDisplay:10.37,2013-03-18 15:11:00,
2013-03-18 11:12:00,27.6,10.9,30.42,SW,225,3.2,5.0,49,0.00,CLR,OVC,0.00,WeatherDisplay:10.37,2013-03-18 15:12:00,
2013-03-18 11:16:00,28.0,11.7,30.42,East,98,5.7,6.9,50,0.00,CLR,OVC,0.00,WeatherDisplay:10.37,2013-03-18 15:16:00,
2013-03-18 11:17:00,28.2,11.9,30.42,ESE,123,6.2,8.1,50,0.00,CLR,OVC,0.00,WeatherDisplay:10.37,2013-03-18 15:17:00,
2013-03-18 11:22:00,28.9,11.6,30.42,ESE,122,1.9,3.5,48,0.00,CLR,OVC,0.00,WeatherDisplay:10.37,2013-03-18 15:22:00,
2013-03-18 11:27:00,29.2,11.0,30.42,NE,53,3.2,6.9,46,0.00,CLR,OVC,0.00,WeatherDisplay:10.37,2013-03-18 15:27:00,
2013-03-18 11:28:00,29.2,11.0,30.41,NE,53,2.6,4.6,46,0.00,CLR,OVC,0.00,WeatherDisplay:10.37,2013-03-18 15:28:00,
2013-03-18 11:32:00,29.2,10.5,30.42,ENE,72,4.0,6.9,45,0.00,CLR,OVC,0.00,WeatherDisplay:10.37,2013-03-18 15:32:00,
2013-03-18 11:33:00,29.1,10.4,30.42,ENE,72,3.9,5.0,45,0.00,CLR,OVC,0.00,WeatherDisplay:10.37,2013-03-18 15:33:00,
2013-03-18 11:37:00,29.0,10.3,30.41,NNE,18,6.4,10.4,45,0.00,CLR,OVC,0.00,WeatherDisplay:10.37,2013-03-18 15:37:00,
2013-03-18 11:38:00,29.0,9.8,30.41,NNE,33,6.6,9.2,44,0.00,CLR,OVC,0.00,WeatherDisplay:10.37,2013-03-18 15:38:00,
2013-03-18 11:42:00,28.9,10.7,30.41,NNE,13,1.5,4.0,46,0.00,CLR,OVC,0.00,WeatherDisplay:10.37,2013-03-18 15:42:00,
2013-03-18 11:43:00,28.9,10.7,30.41,NNE,13,2.1,3.5,46,0.00,CLR,OVC,0.00,WeatherDisplay:10.37,2013-03-18 15:43:00,
2013-03-18 11:48:00,29.4,11.6,30.41,ESE,121,4.4,8.1,47,0.00,CLR,OVC,0.00,WeatherDisplay:10.37,2013-03-18 15:48:00,
2013-03-18 11:53:00,29.7,10.4,30.41,North,2,4.2,5.8,44,0.00,CLR,OVC,0.00,WeatherDisplay:10.37,2013-03-18 15:53:00,
2013-03-18 11:58:00,30.0,11.2,30.40,SSW,200,5.4,8.1,45,0.00,CLR,OVC,0.00,WeatherDisplay:10.37,2013-03-18 15:58:00,
2013-03-18 12:03:00,30.1,10.8,30.40,SW,231,5.1,8.1,44,0.00,CLR,OVC,0.00,WeatherDisplay:10.37,2013-03-18 16:03:00,
2013-03-18 12:04:00,30.1,10.8,30.40,WSW,245,6.7,9.0,44,0.00,CLR,OVC,0.00,WeatherDisplay:10.37,2013-03-18 16:04:00,
2013-03-18 12:08:00,29.8,10.0,30.40,SSE,152,5.1,8.1,43,0.00,CLR,OVC,0.00,WeatherDisplay:10.37,2013-03-18 16:08:00,
2013-03-18 12:09:00,29.9,11.1,30.39,SSE,150,4.2,8.1,45,0.00,CLR,OVC,0.00,WeatherDisplay:10.37,2013-03-18 16:09:00,
2013-03-18 12:13:00,29.8,9.5,30.39,WSW,239,2.1,3.5,42,0.00,CLR,OVC,0.00,WeatherDisplay:10.37,2013-03-18 16:13:00,
2013-03-18 12:14:00,29.8,9.5,30.39,WSW,239,1.9,3.5,42,0.00,CLR,OVC,0.00,WeatherDisplay:10.37,2013-03-18 16:14:00,
2013-03-18 12:18:00,29.9,10.1,30.39,WSW,251,3.0,5.0,43,0.00,CLR,OVC,0.00,WeatherDisplay:10.37,2013-03-18 16:18:00,
2013-03-18 12:19:00,29.9,10.6,30.39,WSW,251,3.9,5.0,44,0.00,CLR,OVC,0.00,WeatherDisplay:10.37,2013-03-18 16:19:00,
2013-03-18 12:23:00,30.2,11.9,30.39,SW,219,3.7,6.9,46,0.00,CLR,OVC,0.00,WeatherDisplay:10.37,2013-03-18 16:23:00,
2013-03-18 12:24:00,30.2,11.4,30.39,SW,219,1.9,4.0,45,0.00,CLR,OVC,0.00,WeatherDisplay:10.37,2013-03-18 16:24:00,
2013-03-18 12:29:00,30.6,11.2,30.39,SW,219,0.6,1.2,44,0.00,CLR,OVC,0.00,WeatherDisplay:10.37,2013-03-18 16:29:00,
2013-03-18 12:34:00,31.1,11.7,30.38,SW,221,4.2,6.9,44,0.00,CLR,OVC,0.00,WeatherDisplay:10.37,2013-03-18 16:34:00,
2013-03-18 12:35:00,31.1,11.7,30.39,SW,222,4.9,7.0,44,0.00,CLR,OVC,0.00,WeatherDisplay:10.37,2013-03-18 16:35:00,
2013-03-18 12:39:00,31.0,12.1,30.39,WSW,246,5.5,6.9,45,0.00,CLR,OVC,0.00,WeatherDisplay:10.37,2013-03-18 16:39:00,
2013-03-18 12:40:00,31.0,11.6,30.38,WSW,246,4.5,6.9,44,0.00,CLR,OVC,0.00,WeatherDisplay:10.37,2013-03-18 16:40:00,
2013-03-18 12:44:00,30.9,11.5,30.38,WSW,245,3.9,6.0,44,0.00,CLR,OVC,0.00,WeatherDisplay:10.37,2013-03-18 16:44:00,
2013-03-18 12:45:00,30.9,11.5,30.38,WSW,245,4.6,5.8,44,0.00,CLR,OVC,0.00,WeatherDisplay:10.37,2013-03-18 16:45:00,
2013-03-18 12:49:00,31.2,12.8,30.38,WSW,241,5.6,6.9,46,0.00,CLR,OVC,0.00,WeatherDisplay:10.37,2013-03-18 16:49:00,
2013-03-18 12:50:00,31.3,12.9,30.38,WSW,241,5.9,6.9,46,0.00,CLR,OVC,0.00,WeatherDisplay:10.37,2013-03-18 16:50:00,
2013-03-18 12:54:00,31.4,12.0,30.38,WSW,238,3.7,6.9,44,0.00,CLR,OVC,0.00,WeatherDisplay:10.37,2013-03-18 16:54:00,
2013-03-18 12:55:00,31.4,12.0,30.38,WSW,238,2.0,4.0,44,0.00,CLR,OVC,0.00,WeatherDisplay:10.37,2013-03-18 16:55:00,
2013-03-18 12:59:00,31.4,12.0,30.37,WSW,237,2.7,5.0,44,0.00,CLR,OVC,0.00,WeatherDisplay:10.37,2013-03-18 16:59:00,
2013-03-18 13:00:00,31.5,11.5,30.38,SSW,210,2.7,4.6,43,0.00,CLR,OVC,0.00,WeatherDisplay:10.37,2013-03-18 17:00:00,
2013-03-18 13:04:00,31.7,13.3,30.37,WSW,243,3.5,4.0,46,0.00,CLR,OVC,0.00,WeatherDisplay:10.37,2013-03-18 17:04:00,
2013-03-18 13:05:00,31.7,12.8,30.37,West,277,4.2,6.0,45,0.00,CLR,OVC,0.00,WeatherDisplay:10.37,2013-03-18 17:05:00,
2013-03-18 13:06:00,31.8,13.3,30.36,West,280,4.6,5.8,46,0.00,CLR,OVC,0.00,WeatherDisplay:10.37,2013-03-18 17:06:00,
2013-03-18 13:09:00,31.9,12.4,30.37,NW,312,4.9,5.8,44,0.00,CLR,OVC,0.00,WeatherDisplay:10.37,2013-03-18 17:09:00,
2013-03-18 13:10:00,31.9,11.9,30.36,NW,312,5.0,5.8,43,0.00,CLR,OVC,0.00,WeatherDisplay:10.37,2013-03-18 17:10:00,
2013-03-18 13:11:00,31.9,11.9,30.36,NW,312,4.1,5.8,43,0.00,CLR,OVC,0.00,WeatherDisplay:10.37,2013-03-18 17:11:00,
2013-03-18 13:14:00,31.7,11.2,30.36,NW,312,4.1,5.0,42,0.00,CLR,OVC,0.00,WeatherDisplay:10.37,2013-03-18 17:14:00,
2013-03-18 13:15:00,31.7,11.2,30.36,NW,312,4.5,5.8,42,0.00,CLR,OVC,0.00,WeatherDisplay:10.37,2013-03-18 17:15:00,
2013-03-18 13:16:00,31.7,11.2,30.36,NW,312,3.9,5.8,42,0.00,CLR,OVC,0.00,WeatherDisplay:10.37,2013-03-18 17:16:00,
2013-03-18 13:19:00,31.8,11.3,30.36,WSW,239,4.2,5.8,42,0.00,CLR,OVC,0.00,WeatherDisplay:10.37,2013-03-18 17:19:00,
2013-03-18 13:20:00,31.8,11.3,30.36,WSW,238,4.2,5.8,42,0.00,CLR,OVC,0.00,WeatherDisplay:10.37,2013-03-18 17:20:00,
2013-03-18 13:21:00,31.8,11.3,30.36,WSW,238,4.6,5.8,42,0.00,CLR,OVC,0.00,WeatherDisplay:10.37,2013-03-18 17:21:00,
2013-03-18 13:22:00,31.8,11.3,30.36,WSW,238,3.3,6.9,42,0.00,CLR,OVC,0.00,WeatherDisplay:10.37,2013-03-18 17:22:00,
2013-03-18 13:25:00,31.9,11.9,30.35,SW,226,3.7,4.6,43,0.00,CLR,OVC,0.00,WeatherDisplay:10.37,2013-03-18 17:25:00,
2013-03-18 13:27:00,32.0,12.0,30.35,SW,235,4.2,5.0,43,0.00,CLR,OVC,0.00,WeatherDisplay:10.37,2013-03-18 17:27:00,
2013-03-18 13:30:00,32.1,12.6,30.36,WSW,245,3.8,4.6,44,0.00,CLR,OVC,0.00,WeatherDisplay:10.37,2013-03-18 17:30:00,
2013-03-18 13:32:00,32.2,11.1,30.35,WSW,245,2.2,3.5,41,0.00,CLR,OVC,0.00,WeatherDisplay:10.37,2013-03-18 17:32:00,
2013-03-18 13:35:00,32.3,13.3,30.35,WNW,295,4.8,6.0,45,0.00,CLR,OVC,0.00,WeatherDisplay:10.37,2013-03-18 17:35:00,
2013-03-18 13:37:00,32.4,12.4,30.35,WNW,298,3.5,5.8,43,0.00,CLR,OVC,0.00,WeatherDisplay:10.37,2013-03-18 17:37:00,
2013-03-18 13:40:00,32.4,12.4,30.35,WNW,298,4.2,6.0,43,0.00,CLR,OVC,0.00,WeatherDisplay:10.37,2013-03-18 17:40:00,
2013-03-18 13:42:00,32.4,12.9,30.35,West,277,6.7,10.4,44,0.00,CLR,OVC,0.00,WeatherDisplay:10.37,2013-03-18 17:42:00,
2013-03-18 13:43:00,32.4,12.4,30.35,West,277,5.1,9.2,43,0.00,CLR,OVC,0.00,WeatherDisplay:10.37,2013-03-18 17:43:00,
2013-03-18 13:45:00,32.3,12.8,30.35,West,277,2.8,4.6,44,0.00,CLR,OVC,0.00,WeatherDisplay:10.37,2013-03-18 17:45:00,
2013-03-18 13:46:00,32.3,12.8,30.35,West,277,3.0,3.5,44,0.00,CLR,OVC,0.00,WeatherDisplay:10.37,2013-03-18 17:46:00,
2013-03-18 13:48:00,32.3,12.8,30.35,West,277,4.0,6.9,44,0.00,CLR,OVC,0.00,WeatherDisplay:10.37,2013-03-18 17:48:00,
2013-03-18 13:50:00,32.4,12.9,30.34,West,277,2.4,3.5,44,0.00,CLR,OVC,0.00,WeatherDisplay:10.37,2013-03-18 17:50:00,
2013-03-18 13:51:00,32.4,11.8,30.34,West,277,1.4,3.5,42,0.00,CLR,OVC,0.00,WeatherDisplay:10.37,2013-03-18 17:51:00,
2013-03-18 13:53:00,32.5,12.5,30.34,West,277,4.4,6.0,43,0.00,CLR,OVC,0.00,WeatherDisplay:10.37,2013-03-18 17:53:00,
2013-03-18 13:55:00,32.5,11.9,30.34,West,277,4.7,5.8,42,0.00,CLR,OVC,0.00,WeatherDisplay:10.37,2013-03-18 17:55:00,
2013-03-18 13:57:00,32.5,12.5,30.34,West,277,4.6,6.9,43,0.00,CLR,OVC,0.00,WeatherDisplay:10.37,2013-03-18 17:57:00,
2013-03-18 13:58:00,32.5,11.9,30.34,West,277,3.1,5.8,42,0.00,CLR,OVC,0.00,WeatherDisplay:10.37,2013-03-18 17:58:00,
2013-03-18 14:01:00,32.5,13.5,30.33,West,278,4.3,7.0,45,0.00,CLR,OVC,0.00,WeatherDisplay:10.37,2013-03-18 18:01:00,
2013-03-18 14:02:00,32.5,13.0,30.33,West,278,4.7,6.9,44,0.00,CLR,OVC,0.00,WeatherDisplay:10.37,2013-03-18 18:02:00,
2013-03-18 14:03:00,32.6,12.5,30.33,WSW,238,3.8,6.0,43,0.00,CLR,OVC,0.00,WeatherDisplay:10.37,2013-03-18 18:03:00,
2013-03-18 14:06:00,32.6,12.5,30.33,WSW,244,3.7,4.6,43,0.00,CLR,OVC,0.00,WeatherDisplay:10.37,2013-03-18 18:06:00,
2013-03-18 14:07:00,32.6,12.0,30.33,WSW,244,2.8,4.6,42,0.00,CLR,OVC,0.00,WeatherDisplay:10.37,2013-03-18 18:07:00,
2013-03-18 14:08:00,32.6,12.0,30.33,WSW,244,3.1,4.0,42,0.00,CLR,OVC,0.00,WeatherDisplay:10.37,2013-03-18 18:08:00,
2013-03-18 14:09:00,32.7,12.1,30.33,WSW,244,3.3,4.6,42,0.00,CLR,OVC,0.00,WeatherDisplay:10.37,2013-03-18 18:09:00,
2013-03-18 14:11:00,32.8,12.2,30.33,West,261,4.4,6.9,42,0.00,CLR,OVC,0.00,WeatherDisplay:10.37,2013-03-18 18:11:00,
2013-03-18 14:13:00,32.9,12.3,30.32,West,261,1.5,3.5,42,0.00,CLR,OVC,0.00,WeatherDisplay:10.37,2013-03-18 18:13:00,
2013-03-18 14:14:00,32.9,11.7,30.32,West,261,1.3,2.3,41,0.00,CLR,OVC,0.00,WeatherDisplay:10.37,2013-03-18 18:14:00,
2013-03-18 14:16:00,33.1,11.9,30.32,West,261,1.7,3.5,41,0.00,CLR,OVC,0.00,WeatherDisplay:10.37,2013-03-18 18:16:00,
2013-03-18 14:18:00,33.3,12.6,30.32,West,261,4.3,5.8,42,0.00,CLR,OVC,0.00,WeatherDisplay:10.37,2013-03-18 18:18:00,
2013-03-18 14:19:00,33.3,12.6,30.32,West,261,4.7,4.7,42,0.00,CLR,OVC,0.00,WeatherDisplay:10.37,2013-03-18 18:19:00,
2013-03-18 14:22:00,33.3,12.1,30.32,SSW,204,5.6,8.1,41,0.00,CLR,OVC,0.00,WeatherDisplay:10.37,2013-03-18 18:22:00,
2013-03-18 14:24:00,33.3,12.1,30.32,SSW,199,4.0,5.8,41,0.00,CLR,OVC,0.00,WeatherDisplay:10.37,2013-03-18 18:24:00,
2013-03-18 14:27:00,33.5,12.8,30.32,SSW,199,1.8,3.5,42,0.00,CLR,OVC,0.00,WeatherDisplay:10.37,2013-03-18 18:27:00,
2013-03-18 14:29:00,33.7,12.5,30.32,SSW,199,1.5,4.0,41,0.00,CLR,OVC,0.00,WeatherDisplay:10.37,2013-03-18 18:29:00,
2013-03-18 14:32:00,33.9,12.6,30.32,SSW,199,1.8,3.5,41,0.00,CLR,OVC,0.00,WeatherDisplay:10.37,2013-03-18 18:32:00,
2013-03-18 14:34:00,34.3,14.6,30.32,SSW,199,1.0,3.0,44,0.00,CLR,OVC,0.00,WeatherDisplay:10.37,2013-03-18 18:34:00,
2013-03-18 14:35:00,34.3,14.1,30.32,SSW,199,1.5,4.0,43,0.00,CLR,OVC,0.00,WeatherDisplay:10.37,2013-03-18 18:35:00,
2013-03-18 14:37:00,34.5,14.8,30.32,SSW,199,1.3,3.5,44,0.00,CLR,OVC,0.00,WeatherDisplay:10.37,2013-03-18 18:37:00,
2013-03-18 14:39:00,34.6,13.8,30.31,WNW,295,4.7,6.9,42,0.00,CLR,OVC,0.00,WeatherDisplay:10.37,2013-03-18 18:39:00,
2013-03-18 14:40:00,34.6,14.4,30.31,WNW,295,4.6,6.9,43,0.00,CLR,OVC,0.00,WeatherDisplay:10.37,2013-03-18 18:40:00,
2013-03-18 14:42:00,34.6,14.4,30.32,WNW,295,1.4,3.5,43,0.00,CLR,OVC,0.00,WeatherDisplay:10.37,2013-03-18 18:42:00,
2013-03-18 14:44:00,34.7,14.5,30.31,WNW,290,4.6,5.0,43,0.00,CLR,OVC,0.00,WeatherDisplay:10.37,2013-03-18 18:44:00,
2013-03-18 14:45:00,34.7,14.5,30.31,WNW,285,5.1,6.0,43,0.00,CLR,OVC,0.00,WeatherDisplay:10.37,2013-03-18 18:45:00,
2013-03-18 14:47:00,34.6,14.9,30.31,SW,219,5.6,6.9,44,0.00,CLR,OVC,0.00,WeatherDisplay:10.37,2013-03-18 18:47:00,
2013-03-18 14:49:00,34.6,14.4,30.31,SW,234,4.8,5.8,43,0.00,CLR,OVC,0.00,WeatherDisplay:10.37,2013-03-18 18:49:00,
2013-03-18 14:50:00,34.5,14.3,30.31,SW,234,4.7,6.9,43,0.00,CLR,OVC,0.00,WeatherDisplay:10.37,2013-03-18 18:50:00,
2013-03-18 14:51:00,34.5,14.8,30.31,WSW,237,4.6,6.9,44,0.00,CLR,OVC,0.00,WeatherDisplay:10.37,2013-03-18 18:51:00,
2013-03-18 14:52:00,34.4,14.2,30.31,WSW,237,3.6,4.6,43,0.00,CLR,OVC,0.00,WeatherDisplay:10.37,2013-03-18 18:52:00,
2013-03-18 14:55:00,34.4,14.2,30.30,South,185,4.5,9.2,43,0.00,CLR,OVC,0.00,WeatherDisplay:10.37,2013-03-18 18:55:00,
2013-03-18 14:56:00,34.3,13.0,30.30,South,179,4.4,6.9,41,0.00,CLR,OVC,0.00,WeatherDisplay:10.37,2013-03-18 18:56:00,
2013-03-18 14:57:00,34.3,14.6,30.30,South,179,3.7,4.6,44,0.00,CLR,OVC,0.00,WeatherDisplay:10.37,2013-03-18 18:57:00,
2013-03-18 15:00:00,34.3,14.1,30.30,South,181,2.3,4.6,43,0.00,CLR,OVC,0.00,WeatherDisplay:10.37,2013-03-18 19:00:00,
2013-03-18 15:01:00,34.3,14.1,30.30,South,181,1.6,3.5,43,0.00,CLR,OVC,0.00,WeatherDisplay:10.37,2013-03-18 19:01:00,
2013-03-18 15:02:00,34.4,14.2,30.30,South,181,1.5,3.5,43,0.00,CLR,OVC,0.00,WeatherDisplay:10.37,2013-03-18 19:02:00,
2013-03-18 15:05:00,34.5,14.8,30.30,WSW,246,4.5,4.6,44,0.00,CLR,OVC,0.00,WeatherDisplay:10.37,2013-03-18 19:05:00,
2013-03-18 15:06:00,34.5,15.3,30.29,WNW,284,5.0,5.8,45,0.00,CLR,OVC,0.00,WeatherDisplay:10.37,2013-03-18 19:06:00,
2013-03-18 15:07:00,34.4,14.2,30.29,WNW,285,4.0,5.8,43,0.00,CLR,OVC,0.00,WeatherDisplay:10.37,2013-03-18 19:07:00,
2013-03-18 15:10:00,34.4,14.2,30.29,WNW,285,1.5,3.5,43,0.00,CLR,OVC,0.00,WeatherDisplay:10.37,2013-03-18 19:10:00,
2013-03-18 15:11:00,34.4,14.2,30.29,WNW,285,2.0,3.0,43,0.00,CLR,OVC,0.00,WeatherDisplay:10.37,2013-03-18 19:11:00,
2013-03-18 15:13:00,34.3,13.6,30.29,WNW,285,2.3,3.5,42,0.00,CLR,OVC,0.00,WeatherDisplay:10.37,2013-03-18 19:13:00,
2013-03-18 15:15:00,34.4,14.2,30.29,WNW,285,2.8,5.8,43,0.00,CLR,OVC,0.00,WeatherDisplay:10.37,2013-03-18 19:15:00,
2013-03-18 15:17:00,34.3,14.6,30.29,WNW,285,2.3,5.0,44,0.00,CLR,OVC,0.00,WeatherDisplay:10.37,2013-03-18 19:17:00,
2013-03-18 15:18:00,34.4,14.7,30.29,WNW,285,3.4,4.6,44,0.00,CLR,OVC,0.00,WeatherDisplay:10.37,2013-03-18 19:18:00,
2013-03-18 15:20:00,34.4,13.6,30.29,WNW,285,1.2,2.3,42,0.00,CLR,OVC,0.00,WeatherDisplay:10.37,2013-03-18 19:20:00,
2013-03-18 15:22:00,34.5,13.7,30.28,WNW,285,0.9,2.3,42,0.00,CLR,OVC,0.00,WeatherDisplay:10.37,2013-03-18 19:22:00,
2013-03-18 15:23:00,34.5,13.2,30.28,WNW,285,0.0,2.3,41,0.00,CLR,OVC,0.00,WeatherDisplay:10.37,2013-03-18 19:23:00,
2013-03-18 15:25:00,34.6,13.3,30.29,WNW,285,0.2,0.0,41,0.00,CLR,OVC,0.00,WeatherDisplay:10.37,2013-03-18 19:25:00,
2013-03-18 15:26:00,34.6,13.3,30.28,WNW,285,0.4,2.0,41,0.00,CLR,OVC,0.00,WeatherDisplay:10.37,2013-03-18 19:26:00,
2013-03-18 15:27:00,34.6,13.3,30.28,WNW,285,0.6,2.3,41,0.00,CLR,OVC,0.00,WeatherDisplay:10.37,2013-03-18 19:27:00,
2013-03-18 15:28:00,34.7,13.9,30.28,WNW,285,0.3,2.3,42,0.00,CLR,OVC,0.00,WeatherDisplay:10.37,2013-03-18 19:28:00,
2013-03-18 15:31:00,34.9,13.5,30.28,WNW,285,0.1,1.2,41,0.00,CLR,OVC,0.00,WeatherDisplay:10.37,2013-03-18 19:31:00,
2013-03-18 15:32:00,34.9,13.5,30.28,WNW,285,0.4,1.2,41,0.00,CLR,OVC,0.00,WeatherDisplay:10.37,2013-03-18 19:32:00,
2013-03-18 15:33:00,34.9,14.1,30.28,WNW,285,3.9,5.8,42,0.00,CLR,OVC,0.00,WeatherDisplay:10.37,2013-03-18 19:33:00,
2013-03-18 15:36:00,34.8,14.0,30.28,WSW,255,5.0,6.9,42,0.00,CLR,OVC,0.00,WeatherDisplay:10.37,2013-03-18 19:36:00,
2013-03-18 15:37:00,34.6,13.8,30.28,WSW,255,4.3,5.8,42,0.00,CLR,OVC,0.00,WeatherDisplay:10.37,2013-03-18 19:37:00,
2013-03-18 15:38:00,34.4,13.6,30.28,WSW,255,3.8,4.6,42,0.00,CLR,OVC,0.00,WeatherDisplay:10.37,2013-03-18 19:38:00,
2013-03-18 15:41:00,34.3,14.1,30.28,WSW,255,3.4,4.6,43,0.00,CLR,OVC,0.00,WeatherDisplay:10.37,2013-03-18 19:41:00,
2013-03-18 15:42:00,34.3,14.1,30.28,WSW,255,2.9,4.6,43,0.00,CLR,OVC,0.00,WeatherDisplay:10.37,2013-03-18 19:42:00,
2013-03-18 15:43:00,34.4,14.2,30.27,WSW,255,2.2,3.5,43,0.00,CLR,OVC,0.00,WeatherDisplay:10.37,2013-03-18 19:43:00,
2013-03-18 15:46:00,34.4,13.6,30.27,WSW,255,2.8,3.5,42,0.00,CLR,OVC,0.00,WeatherDisplay:10.37,2013-03-18 19:46:00,
2013-03-18 15:47:00,34.3,13.6,30.27,WSW,255,1.8,3.5,42,0.00,CLR,OVC,0.00,WeatherDisplay:10.37,2013-03-18 19:47:00,
2013-03-18 15:48:00,34.3,13.0,30.27,WSW,255,1.6,3.5,41,0.00,CLR,OVC,0.00,WeatherDisplay:10.37,2013-03-18 19:48:00,
2013-03-18 15:51:00,34.3,12.4,30.27,WSW,255,0.0,1.2,40,0.00,CLR,OVC,0.00,WeatherDisplay:10.37,2013-03-18 19:51:00,
2013-03-18 15:52:00,34.4,12.5,30.27,WSW,255,0.1,0.0,40,0.00,CLR,OVC,0.00,WeatherDisplay:10.37,2013-03-18 19:52:00,
2013-03-18 15:53:00,34.4,12.5,30.27,WSW,255,0.1,1.2,40,0.00,CLR,OVC,0.00,WeatherDisplay:10.37,2013-03-18 19:53:00,
2013-03-18 15:54:00,34.4,12.5,30.27,WSW,255,0.0,0.0,40,0.00,CLR,OVC,0.00,WeatherDisplay:10.37,2013-03-18 19:54:00,
2013-03-18 15:57:00,34.6,13.8,30.27,WSW,255,2.8,5.0,42,0.00,CLR,OVC,0.00,WeatherDisplay:10.37,2013-03-18 19:57:00,
2013-03-18 15:58:00,34.6,13.8,30.26,WSW,255,3.6,4.6,42,0.00,CLR,OVC,0.00,WeatherDisplay:10.37,2013-03-18 19:58:00,
2013-03-18 15:59:00,34.7,13.9,30.27,WSW,255,2.9,4.6,42,0.00,CLR,OVC,0.00,WeatherDisplay:10.37,2013-03-18 19:59:00,
2013-03-18 16:02:00,34.6,13.3,30.27,WSW,255,2.7,3.5,41,0.00,CLR,OVC,0.00,WeatherDisplay:10.37,2013-03-18 20:02:00,
2013-03-18 16:03:00,34.6,13.3,30.27,WSW,255,2.7,3.5,41,0.00,CLR,OVC,0.00,WeatherDisplay:10.37,2013-03-18 20:03:00,
2013-03-18 16:04:00,34.6,13.3,30.27,WSW,255,2.6,3.5,41,0.00,CLR,OVC,0.00,WeatherDisplay:10.37,2013-03-18 20:04:00,
2013-03-18 16:08:00,34.5,13.2,30.26,WSW,255,0.0,0.0,41,0.00,CLR,OVC,0.00,WeatherDisplay:10.37,2013-03-18 20:08:00,
2013-03-18 16:09:00,34.5,13.2,30.26,WSW,255,1.4,4.0,41,0.00,CLR,OVC,0.00,WeatherDisplay:10.37,2013-03-18 20:09:00,
2013-03-18 16:13:00,34.5,14.3,30.26,WSW,255,2.1,4.0,43,0.00,CLR,OVC,0.00,WeatherDisplay:10.37,2013-03-18 20:13:00,
2013-03-18 16:14:00,34.5,14.8,30.26,WSW,255,2.4,3.5,44,0.00,CLR,OVC,0.00,WeatherDisplay:10.37,2013-03-18 20:14:00,
2013-03-18 16:18:00,34.6,14.4,30.26,WSW,255,1.5,3.5,43,0.00,CLR,OVC,0.00,WeatherDisplay:10.37,2013-03-18 20:18:00,
2013-03-18 16:19:00,34.6,14.4,30.26,WSW,255,2.3,3.5,43,0.00,CLR,OVC,0.00,WeatherDisplay:10.37,2013-03-18 20:19:00,
2013-03-18 16:23:00,34.6,13.8,30.26,WSW,255,2.4,3.5,42,0.00,CLR,OVC,0.00,WeatherDisplay:10.37,2013-03-18 20:23:00,
2013-03-18 16:24:00,34.6,13.8,30.26,WSW,255,2.3,3.5,42,0.00,CLR,OVC,0.00,WeatherDisplay:10.37,2013-03-18 20:24:00,
2013-03-18 16:28:00,34.7,14.5,30.25,WSW,255,1.5,3.5,43,0.00,CLR,OVC,0.00,WeatherDisplay:10.37,2013-03-18 20:28:00,
2013-03-18 16:29:00,34.7,14.5,30.25,WSW,255,0.2,3.5,43,0.00,CLR,OVC,0.00,WeatherDisplay:10.37,2013-03-18 20:29:00,
2013-03-18 16:33:00,34.8,15.1,30.25,WSW,256,3.7,4.6,44,0.00,CLR,OVC,0.00,WeatherDisplay:10.37,2013-03-18 20:33:00,
2013-03-18 16:34:00,34.8,15.6,30.25,WSW,256,3.7,5.0,45,0.00,CLR,OVC,0.00,WeatherDisplay:10.37,2013-03-18 20:34:00,
2013-03-18 16:35:00,34.9,16.2,30.25,WSW,256,4.0,4.6,46,0.00,CLR,OVC,0.00,WeatherDisplay:10.37,2013-03-18 20:35:00,
2013-03-18 16:37:00,34.7,15.5,30.25,WSW,256,3.0,4.6,45,0.00,CLR,OVC,0.00,WeatherDisplay:10.37,2013-03-18 20:37:00,
2013-03-18 16:39:00,34.7,15.5,30.25,WSW,256,2.7,3.5,45,0.00,CLR,OVC,0.00,WeatherDisplay:10.37,2013-03-18 20:39:00,
2013-03-18 16:40:00,34.6,15.5,30.25,WSW,256,2.0,5.0,45,0.00,CLR,OVC,0.00,WeatherDisplay:10.37,2013-03-18 20:40:00,
2013-03-18 16:42:00,34.6,15.4,30.24,WSW,256,1.7,2.3,45,0.00,CLR,OVC,0.00,WeatherDisplay:10.37,2013-03-18 20:42:00,
2013-03-18 16:44:00,34.5,16.3,30.24,WSW,256,3.0,4.6,47,0.00,CLR,OVC,0.00,WeatherDisplay:10.37,2013-03-18 20:44:00,
2013-03-18 16:45:00,34.5,15.8,30.24,WSW,256,2.9,3.5,46,0.00,CLR,OVC,0.00,WeatherDisplay:10.37,2013-03-18 20:45:00,
2013-03-18 16:47:00,34.4,15.7,30.24,WSW,256,2.2,3.5,46,0.00,CLR,OVC,0.00,WeatherDisplay:10.37,2013-03-18 20:47:00,
2013-03-18 16:49:00,34.3,15.6,30.24,WSW,256,2.5,3.5,46,0.00,CLR,OVC,0.00,WeatherDisplay:10.37,2013-03-18 20:49:00,
2013-03-18 16:50:00,34.4,15.7,30.24,WSW,256,2.0,4.0,46,0.00,CLR,OVC,0.00,WeatherDisplay:10.37,2013-03-18 20:50:00,
2013-03-18 16:51:00,34.4,15.7,30.24,WSW,256,2.3,3.5,46,0.00,CLR,OVC,0.00,WeatherDisplay:10.37,2013-03-18 20:51:00,
2013-03-18 16:52:00,34.3,15.6,30.24,WSW,256,1.5,3.0,46,0.00,CLR,OVC,0.00,WeatherDisplay:10.37,2013-03-18 20:52:00,
2013-03-18 16:54:00,34.4,15.7,30.23,WSW,256,1.6,3.5,46,0.00,CLR,OVC,0.00,WeatherDisplay:10.37,2013-03-18 20:54:00,
2013-03-18 16:55:00,34.4,15.7,30.23,WSW,256,1.6,3.5,46,0.00,CLR,OVC,0.00,WeatherDisplay:10.37,2013-03-18 20:55:00,
2013-03-18 16:56:00,34.3,15.1,30.23,WSW,256,0.7,2.3,45,0.00,CLR,OVC,0.00,WeatherDisplay:10.37,2013-03-18 20:56:00,
2013-03-18 16:57:00,34.3,14.6,30.23,WSW,256,1.9,2.3,44,0.00,CLR,OVC,0.00,WeatherDisplay:10.37,2013-03-18 20:57:00,
2013-03-18 17:00:00,34.3,15.1,30.23,WSW,256,2.5,3.5,45,0.00,CLR,OVC,0.00,WeatherDisplay:10.37,2013-03-18 21:00:00,
2013-03-18 17:01:00,34.3,15.1,30.23,WSW,256,1.7,3.5,45,0.00,CLR,OVC,0.00,WeatherDisplay:10.37,2013-03-18 21:01:00,
2013-03-18 17:03:00,34.4,15.7,30.23,WSW,256,0.9,2.3,46,0.00,CLR,OVC,0.00,WeatherDisplay:10.37,2013-03-18 21:03:00,
2013-03-18 17:05:00,34.3,15.1,30.23,WSW,256,0.2,1.2,45,0.00,CLR,OVC,0.00,WeatherDisplay:10.37,2013-03-18 21:05:00,
2013-03-18 17:06:00,34.4,15.2,30.23,WSW,256,1.1,2.3,45,0.00,CLR,OVC,0.00,WeatherDisplay:10.37,2013-03-18 21:06:00,
2013-03-18 17:08:00,34.4,15.2,30.22,WSW,256,2.1,3.5,45,0.00,CLR,OVC,0.00,WeatherDisplay:10.37,2013-03-18 21:08:00,
2013-03-18 17:10:00,34.3,15.1,30.22,WSW,256,1.6,2.3,45,0.00,CLR,OVC,0.00,WeatherDisplay:10.37,2013-03-18 21:10:00,
2013-03-18 17:11:00,34.3,15.1,30.22,WSW,256,1.5,2.3,45,0.00,CLR,OVC,0.00,WeatherDisplay:10.37,2013-03-18 21:11:00,
2013-03-18 17:12:00,34.3,14.6,30.22,WSW,256,0.8,2.3,44,0.00,CLR,OVC,0.00,WeatherDisplay:10.37,2013-03-18 21:12:00,
2013-03-18 17:13:00,34.3,14.6,30.22,WSW,256,0.7,1.2,44,0.00,CLR,OVC,0.00,WeatherDisplay:10.37,2013-03-18 21:13:00,
2013-03-18 17:15:00,34.3,14.6,30.22,WSW,256,0.0,0.0,44,0.00,CLR,OVC,0.00,WeatherDisplay:10.37,2013-03-18 21:15:00,
2013-03-18 17:16:00,34.3,15.1,30.21,WSW,256,1.2,2.3,45,0.00,CLR,OVC,0.00,WeatherDisplay:10.37,2013-03-18 21:16:00,
2013-03-18 17:17:00,34.3,15.1,30.21,WSW,256,1.2,2.3,45,0.00,CLR,OVC,0.00,WeatherDisplay:10.37,2013-03-18 21:17:00,
2013-03-18 17:18:00,34.3,16.1,30.21,WSW,256,2.2,3.5,47,0.00,CLR,OVC,0.00,WeatherDisplay:10.37,2013-03-18 21:18:00,
2013-03-18 17:22:00,34.3,16.1,30.21,WSW,256,2.0,3.5,47,0.00,CLR,OVC,0.00,WeatherDisplay:10.37,2013-03-18 21:22:00,
2013-03-18 17:23:00,34.3,16.6,30.21,WSW,256,2.2,3.5,48,0.00,CLR,OVC,0.00,WeatherDisplay:10.37,2013-03-18 21:23:00,
2013-03-18 17:27:00,34.2,17.9,30.21,West,262,3.3,5.0,51,0.00,CLR,OVC,0.00,WeatherDisplay:10.37,2013-03-18 21:27:00,
2013-03-18 17:28:00,34.2,17.9,30.21,NW,306,5.1,5.8,51,0.00,CLR,OVC,0.00,WeatherDisplay:10.37,2013-03-18 21:28:00,
2013-03-18 17:32:00,34.0,17.3,30.20,NW,306,4.2,4.6,50,0.00,CLR,OVC,0.00,WeatherDisplay:10.37,2013-03-18 21:32:00,
2013-03-18 17:33:00,33.9,17.2,30.20,NW,306,3.7,4.6,50,0.00,CLR,OVC,0.00,WeatherDisplay:10.37,2013-03-18 21:33:00,
2013-03-18 17:37:00,33.8,17.6,30.20,NW,306,4.2,5.0,51,0.00,CLR,OVC,0.00,WeatherDisplay:10.37,2013-03-18 21:37:00,
2013-03-18 17:38:00,33.7,17.5,30.20,NW,307,4.7,6.0,51,0.00,CLR,OVC,0.00,WeatherDisplay:10.37,2013-03-18 21:38:00,
2013-03-18 17:42:00,33.6,17.8,30.20,NW,313,4.3,5.8,52,0.00,CLR,OVC,0.00,WeatherDisplay:10.37,2013-03-18 21:42:00,
2013-03-18 17:43:00,33.5,17.7,30.20,NW,313,3.6,4.6,52,0.00,CLR,OVC,0.00,WeatherDisplay:10.37,2013-03-18 21:43:00,
2013-03-18 17:47:00,33.4,17.6,30.20,NW,313,3.0,4.6,52,0.00,CLR,OVC,0.00,WeatherDisplay:10.37,2013-03-18 21:47:00,
2013-03-18 17:48:00,33.3,17.5,30.20,NW,313,3.7,5.0,52,0.00,CLR,OVC,0.00,WeatherDisplay:10.37,2013-03-18 21:48:00,
2013-03-18 17:49:00,33.3,17.5,30.20,NW,313,4.3,4.6,52,0.00,CLR,OVC,0.00,WeatherDisplay:10.37,2013-03-18 21:49:00,
2013-03-18 17:53:00,33.2,17.5,30.20,NW,313,3.0,3.5,52,0.00,CLR,OVC,0.00,WeatherDisplay:10.37,2013-03-18 21:53:00,
2013-03-18 17:54:00,33.2,17.5,30.20,NW,313,3.2,3.5,52,0.00,CLR,OVC,0.00,WeatherDisplay:10.37,2013-03-18 21:54:00,
2013-03-18 17:58:00,33.2,17.5,30.20,NW,313,3.7,4.6,52,0.00,CLR,OVC,0.00,WeatherDisplay:10.37,2013-03-18 21:58:00,
2013-03-18 17:59:00,33.1,17.4,30.20,NW,313,3.7,5.0,52,0.00,CLR,OVC,0.00,WeatherDisplay:10.37,2013-03-18 21:59:00,
2013-03-18 18:03:00,33.1,17.8,30.20,NW,313,3.2,3.5,53,0.00,CLR,OVC,0.00,WeatherDisplay:10.37,2013-03-18 22:03:00,
2013-03-18 18:04:00,33.1,17.8,30.20,NW,313,3.7,4.6,53,0.00,CLR,OVC,0.00,WeatherDisplay:10.37,2013-03-18 22:04:00,
2013-03-18 18:08:00,32.9,16.7,30.20,NW,313,3.7,4.0,51,0.00,CLR,OVC,0.00,WeatherDisplay:10.37,2013-03-18 22:08:00,
2013-03-18 18:09:00,32.9,16.7,30.20,NW,313,2.9,4.0,51,0.00,CLR,OVC,0.00,WeatherDisplay:10.37,2013-03-18 22:09:00,
2013-03-18 18:13:00,32.7,17.0,30.20,NW,313,2.0,3.5,52,0.00,CLR,OVC,0.00,WeatherDisplay:10.37,2013-03-18 22:13:00,
2013-03-18 18:14:00,32.7,17.0,30.20,NW,313,2.4,3.5,52,0.00,CLR,OVC,0.00,WeatherDisplay:10.37,2013-03-18 22:14:00,
2013-03-18 18:18:00,32.6,16.9,30.20,NW,313,1.0,2.3,52,0.00,CLR,OVC,0.00,WeatherDisplay:10.37,2013-03-18 22:18:00,
2013-03-18 18:19:00,32.6,16.9,30.20,NW,313,0.1,1.2,52,0.00,CLR,OVC,0.00,WeatherDisplay:10.37,2013-03-18 22:19:00,
2013-03-18 18:23:00,32.5,16.8,30.20,NW,313,0.1,1.2,52,0.00,CLR,OVC,0.00,WeatherDisplay:10.37,2013-03-18 22:23:00,
2013-03-18 18:24:00,32.6,16.9,30.20,NW,313,0.1,1.2,52,0.00,CLR,OVC,0.00,WeatherDisplay:10.37,2013-03-18 22:24:00,
2013-03-18 18:25:00,32.5,16.8,30.20,NW,313,0.0,0.0,52,0.00,CLR,OVC,0.00,WeatherDisplay:10.37,2013-03-18 22:25:00,
2013-03-18 18:28:00,32.5,16.8,30.19,NW,313,0.0,0.0,52,0.00,CLR,OVC,0.00,WeatherDisplay:10.37,2013-03-18 22:28:00,
2013-03-18 18:29:00,32.5,16.8,30.19,NW,313,0.0,1.2,52,0.00,CLR,OVC,0.00,WeatherDisplay:10.37,2013-03-18 22:29:00,
2013-03-18 18:30:00,32.5,16.8,30.19,NW,313,0.0,0.0,52,0.00,CLR,OVC,0.00,WeatherDisplay:10.37,2013-03-18 22:30:00,
2013-03-18 18:33:00,32.5,16.8,30.19,NW,313,0.0,0.0,52,0.00,CLR,OVC,0.00,WeatherDisplay:10.37,2013-03-18 22:33:00,
2013-03-18 18:34:00,32.5,17.2,30.19,NW,313,0.0,0.0,53,0.00,CLR,OVC,0.00,WeatherDisplay:10.37,2013-03-18 22:34:00,
2013-03-18 18:35:00,32.5,17.2,30.19,NW,313,0.1,2.0,53,0.00,CLR,OVC,0.00,WeatherDisplay:10.37,2013-03-18 22:35:00,
2013-03-18 18:38:00,32.5,17.2,30.19,NW,313,0.9,1.2,53,0.00,CLR,OVC,0.00,WeatherDisplay:10.37,2013-03-18 22:38:00,
2013-03-18 18:39:00,32.5,17.2,30.18,NW,313,0.6,2.3,53,0.00,CLR,OVC,0.00,WeatherDisplay:10.37,2013-03-18 22:39:00,
2013-03-18 18:40:00,32.5,16.8,30.19,NW,313,0.2,1.2,52,0.00,CLR,OVC,0.00,WeatherDisplay:10.37,2013-03-18 22:40:00,
2013-03-18 18:44:00,32.4,17.2,30.18,NW,313,1.0,2.3,53,0.00,CLR,OVC,0.00,WeatherDisplay:10.37,2013-03-18 22:44:00,
2013-03-18 18:45:00,32.4,17.2,30.18,NW,313,1.0,2.3,53,0.00,CLR,OVC,0.00,WeatherDisplay:10.37,2013-03-18 22:45:00,
2013-03-18 18:49:00,32.3,17.1,30.18,NW,313,2.0,3.5,53,0.00,CLR,OVC,0.00,WeatherDisplay:10.37,2013-03-18 22:49:00,
2013-03-18 18:50:00,32.3,17.1,30.18,NW,313,2.0,3.0,53,0.00,CLR,OVC,0.00,WeatherDisplay:10.37,2013-03-18 22:50:00,
2013-03-18 18:54:00,32.2,17.0,30.17,NW,313,0.4,2.3,53,0.00,CLR,OVC,0.00,WeatherDisplay:10.37,2013-03-18 22:54:00,
2013-03-18 18:55:00,32.2,17.0,30.18,NW,313,1.0,3.0,53,0.00,CLR,OVC,0.00,WeatherDisplay:10.37,2013-03-18 22:55:00,
2013-03-18 18:59:00,32.1,17.3,30.17,NW,313,1.3,3.5,54,0.00,CLR,OVC,0.00,WeatherDisplay:10.37,2013-03-18 22:59:00,
2013-03-18 19:00:00,32.1,17.3,30.18,NW,313,1.2,2.3,54,0.00,CLR,OVC,0.00,WeatherDisplay:10.37,2013-03-18 23:00:00,
2013-03-18 19:04:00,32.0,17.2,30.17,NW,313,1.2,2.3,54,0.00,CLR,OVC,0.00,WeatherDisplay:10.37,2013-03-18 23:04:00,
2013-03-18 19:05:00,31.9,17.1,30.17,NW,313,1.1,2.3,54,0.00,CLR,OVC,0.00,WeatherDisplay:10.37,2013-03-18 23:05:00,
2013-03-18 19:09:00,31.8,17.5,30.17,NW,313,0.7,2.0,55,0.00,CLR,OVC,0.00,WeatherDisplay:10.37,2013-03-18 23:09:00,
2013-03-18 19:10:00,31.8,17.0,30.17,NW,313,1.2,2.3,54,0.00,CLR,OVC,0.00,WeatherDisplay:10.37,2013-03-18 23:10:00,
2013-03-18 19:11:00,31.8,17.0,30.17,NW,313,1.9,3.5,54,0.00,CLR,OVC,0.00,WeatherDisplay:10.37,2013-03-18 23:11:00,
2013-03-18 19:14:00,31.6,16.8,30.17,NW,313,2.1,2.3,54,0.00,CLR,OVC,0.00,WeatherDisplay:10.37,2013-03-18 23:14:00,
2013-03-18 19:15:00,31.6,16.8,30.17,NW,313,2.2,3.5,54,0.00,CLR,OVC,0.00,WeatherDisplay:10.37,2013-03-18 23:15:00,
2013-03-18 19:16:00,31.6,16.8,30.17,NW,313,1.8,3.5,54,0.00,CLR,OVC,0.00,WeatherDisplay:10.37,2013-03-18 23:16:00,
2013-03-18 19:20:00,31.6,17.3,30.18,NW,313,1.8,2.3,55,0.00,CLR,OVC,0.00,WeatherDisplay:10.37,2013-03-18 23:20:00,
2013-03-18 19:21:00,31.5,17.2,30.17,NW,313,2.0,3.5,55,0.00,CLR,OVC,0.00,WeatherDisplay:10.37,2013-03-18 23:21:00,
2013-03-18 19:25:00,31.4,17.5,30.17,NW,313,0.0,0.0,56,0.00,CLR,OVC,0.00,WeatherDisplay:10.37,2013-03-18 23:25:00,
2013-03-18 19:27:00,31.4,17.5,30.18,NW,313,0.0,0.0,56,0.00,CLR,OVC,0.00,WeatherDisplay:10.37,2013-03-18 23:27:00,
2013-03-18 19:30:00,31.3,17.4,30.17,NW,313,0.6,1.2,56,0.00,CLR,OVC,0.00,WeatherDisplay:10.37,2013-03-18 23:30:00,
2013-03-18 19:31:00,31.3,17.8,30.17,NW,313,0.2,1.2,57,0.00,CLR,OVC,0.00,WeatherDisplay:10.37,2013-03-18 23:31:00,
2013-03-18 19:32:00,31.3,17.8,30.18,NW,313,0.0,0.0,57,0.00,CLR,OVC,0.00,WeatherDisplay:10.37,2013-03-18 23:32:00,
2013-03-18 19:35:00,31.2,18.1,30.17,NW,313,0.7,1.2,58,0.00,CLR,OVC,0.00,WeatherDisplay:10.37,2013-03-18 23:35:00,
2013-03-18 19:36:00,31.2,18.5,30.17,NW,313,0.4,1.2,59,0.00,CLR,OVC,0.00,WeatherDisplay:10.37,2013-03-18 23:36:00,
2013-03-18 19:37:00,31.2,18.5,30.17,NW,313,0.0,0.0,59,0.00,CLR,OVC,0.00,WeatherDisplay:10.37,2013-03-18 23:37:00,
2013-03-18 19:40:00,31.1,18.8,30.18,NW,313,0.0,0.0,60,0.00,CLR,OVC,0.00,WeatherDisplay:10.37,2013-03-18 23:40:00,
2013-03-18 19:41:00,31.1,18.8,30.17,NW,313,0.0,0.0,60,0.00,CLR,OVC,0.00,WeatherDisplay:10.37,2013-03-18 23:41:00,
2013-03-18 19:43:00,31.1,18.8,30.18,NW,313,0.0,0.0,60,0.00,CLR,OVC,0.00,WeatherDisplay:10.37,2013-03-18 23:43:00,
2013-03-18 19:45:00,31.0,19.1,30.17,NW,313,0.0,0.0,61,0.00,CLR,OVC,0.00,WeatherDisplay:10.37,2013-03-18 23:45:00,
2013-03-18 19:46:00,31.0,19.1,30.17,NW,313,0.0,0.0,61,0.00,CLR,OVC,0.00,WeatherDisplay:10.37,2013-03-18 23:46:00,
2013-03-18 19:47:00,31.0,19.1,30.18,NW,313,0.0,0.0,61,0.00,CLR,OVC,0.00,WeatherDisplay:10.37,2013-03-18 23:47:00,
2013-03-18 19:48:00,31.0,19.1,30.18,NW,313,0.0,0.0,61,0.00,CLR,OVC,0.00,WeatherDisplay:10.37,2013-03-18 23:48:00,
2013-03-18 19:50:00,30.9,19.0,30.18,NW,313,0.0,0.0,61,0.00,CLR,OVC,0.00,WeatherDisplay:10.37,2013-03-18 23:50:00,
2013-03-18 19:52:00,30.8,18.9,30.17,NW,313,0.8,1.2,61,0.00,CLR,OVC,0.00,WeatherDisplay:10.37,2013-03-18 23:52:00,
2013-03-18 19:53:00,30.8,19.3,30.17,NW,313,0.5,2.3,62,0.00,CLR,OVC,0.00,WeatherDisplay:10.37,2013-03-18 23:53:00,
2013-03-18 19:55:00,30.8,19.7,30.17,NW,313,0.1,1.2,63,0.00,CLR,OVC,0.00,WeatherDisplay:10.37,2013-03-18 23:55:00,
2013-03-18 19:57:00,30.8,19.7,30.17,NW,313,0.1,0.0,63,0.00,CLR,OVC,0.00,WeatherDisplay:10.37,2013-03-18 23:57:00,
2013-03-18 19:58:00,30.8,19.7,30.17,NW,313,0.1,1.2,63,0.00,CLR,OVC,0.00,WeatherDisplay:10.37,2013-03-18 23:58:00,
2013-03-18 19:59:00,30.8,19.7,30.17,NW,313,0.0,0.0,63,0.00,CLR,OVC,0.00,WeatherDisplay:10.37,2013-03-18 23:59:00,
2013-03-18 20:00:00,30.8,20.0,30.17,NW,313,0.0,0.0,64,0.00,CLR,OVC,0.00,WeatherDisplay:10.37,2013-03-19 00:00:00,
2013-03-18 20:02:00,30.8,20.0,30.17,NW,313,0.0,0.0,64,0.00,CLR,OVC,0.00,WeatherDisplay:10.37,2013-03-19 00:02:00,
2013-03-18 20:03:00,30.8,20.0,30.17,NW,313,0.0,0.0,64,0.00,CLR,OVC,0.00,WeatherDisplay:10.37,2013-03-19 00:03:00,
2013-03-18 20:04:00,30.8,20.4,30.17,NW,313,0.0,0.0,65,0.00,CLR,OVC,0.00,WeatherDisplay:10.37,2013-03-19 00:04:00,
2013-03-18 20:05:00,30.8,20.4,30.17,NW,313,0.0,0.0,65,0.00,CLR,OVC,0.00,WeatherDisplay:10.37,2013-03-19 00:05:00,
2013-03-18 20:07:00,30.8,20.4,30.17,NW,313,0.0,0.0,65,0.00,CLR,OVC,0.00,WeatherDisplay:10.37,2013-03-19 00:07:00,
2013-03-18 20:09:00,30.7,20.0,30.17,NW,313,0.0,0.0,64,0.00,CLR,OVC,0.00,WeatherDisplay:10.37,2013-03-19 00:09:00,
2013-03-18 20:10:00,30.7,20.0,30.17,NW,313,0.0,0.0,64,0.00,CLR,OVC,0.00,WeatherDisplay:10.37,2013-03-19 00:10:00,
2013-03-18 20:12:00,30.7,20.0,30.16,NW,313,0.0,0.0,64,0.00,CLR,OVC,0.00,WeatherDisplay:10.37,2013-03-19 00:12:00,
2013-03-18 20:14:00,30.7,20.0,30.17,NW,313,0.0,0.0,64,0.00,CLR,OVC,0.00,WeatherDisplay:10.37,2013-03-19 00:14:00,
2013-03-18 20:15:00,30.7,20.0,30.16,NW,313,0.0,0.0,64,0.00,CLR,OVC,0.00,WeatherDisplay:10.37,2013-03-19 00:15:00,
2013-03-18 20:18:00,30.7,19.6,30.16,NW,313,0.0,0.0,63,0.00,CLR,OVC,0.00,WeatherDisplay:10.37,2013-03-19 00:18:00,
2013-03-18 20:19:00,30.7,19.2,30.16,NW,313,0.0,0.0,62,0.00,CLR,OVC,0.00,WeatherDisplay:10.37,2013-03-19 00:19:00,
2013-03-18 20:20:00,30.6,19.1,30.15,NW,313,0.0,0.0,62,0.00,CLR,OVC,0.00,WeatherDisplay:10.37,2013-03-19 00:20:00,
2013-03-18 20:23:00,30.7,19.2,30.15,NW,313,0.0,0.0,62,0.00,CLR,OVC,0.00,WeatherDisplay:10.37,2013-03-19 00:23:00,
2013-03-18 20:24:00,30.7,19.6,30.15,NW,313,0.0,0.0,63,0.00,CLR,OVC,0.00,WeatherDisplay:10.37,2013-03-19 00:24:00,
2013-03-18 20:27:00,30.7,19.2,30.15,NW,313,0.2,1.2,62,0.00,CLR,OVC,0.00,WeatherDisplay:10.37,2013-03-19 00:27:00,
2013-03-18 20:28:00,30.6,19.1,30.15,NW,313,0.0,0.0,62,0.00,CLR,OVC,0.00,WeatherDisplay:10.37,2013-03-19 00:28:00,
2013-03-18 20:29:00,30.6,19.1,30.15,NW,313,0.0,0.0,62,0.00,CLR,OVC,0.00,WeatherDisplay:10.37,2013-03-19 00:29:00,
2013-03-18 20:32:00,30.6,19.9,30.15,NW,313,0.1,0.0,64,0.00,CLR,OVC,0.00,WeatherDisplay:10.37,2013-03-19 00:32:00,
2013-03-18 20:33:00,30.6,19.9,30.15,NW,313,0.1,1.2,64,0.00,CLR,OVC,0.00,WeatherDisplay:10.37,2013-03-19 00:33:00,
2013-03-18 20:34:00,30.6,19.9,30.15,NW,313,0.0,0.0,64,0.00,CLR,OVC,0.00,WeatherDisplay:10.37,2013-03-19 00:34:00,
2013-03-18 20:37:00,30.6,19.9,30.15,NW,313,0.0,0.0,64,0.00,CLR,OVC,0.00,WeatherDisplay:10.37,2013-03-19 00:37:00,
2013-03-18 20:38:00,30.6,19.9,30.15,NW,313,0.0,0.0,64,0.00,CLR,OVC,0.00,WeatherDisplay:10.37,2013-03-19 00:38:00,
2013-03-18 20:39:00,30.6,20.2,30.15,NW,313,0.0,0.0,65,0.00,CLR,OVC,0.00,WeatherDisplay:10.37,2013-03-19 00:39:00,
2013-03-18 20:40:00,30.6,19.9,30.15,NW,313,0.0,0.0,64,0.00,CLR,OVC,0.00,WeatherDisplay:10.37,2013-03-19 00:40:00,
2013-03-18 20:42:00,30.6,20.2,30.15,NW,313,1.8,2.3,65,0.00,CLR,OVC,0.00,WeatherDisplay:10.37,2013-03-19 00:42:00,
2013-03-18 20:43:00,30.6,20.6,30.15,NW,313,1.7,2.3,66,0.00,CLR,OVC,0.00,WeatherDisplay:10.37,2013-03-19 00:43:00,
2013-03-18 20:44:00,30.6,20.6,30.15,NW,313,1.0,2.0,66,0.00,CLR,OVC,0.00,WeatherDisplay:10.37,2013-03-19 00:44:00,
2013-03-18 20:45:00,30.5,20.5,30.15,NW,313,1.2,2.3,66,0.00,CLR,OVC,0.00,WeatherDisplay:10.37,2013-03-19 00:45:00,
2013-03-18 20:47:00,30.6,20.6,30.15,NW,313,1.0,1.2,66,0.00,CLR,OVC,0.00,WeatherDisplay:10.37,2013-03-19 00:47:00,
2013-03-18 20:49:00,30.6,20.9,30.15,NW,313,0.4,1.2,67,0.00,CLR,OVC,0.00,WeatherDisplay:10.37,2013-03-19 00:49:00,
2013-03-18 20:50:00,30.6,20.9,30.15,NW,313,0.0,0.0,67,0.00,CLR,OVC,0.00,WeatherDisplay:10.37,2013-03-19 00:50:00,
2013-03-18 20:53:00,30.5,21.2,30.15,NW,313,1.3,2.3,68,0.00,CLR,OVC,0.00,WeatherDisplay:10.37,2013-03-19 00:53:00,
2013-03-18 20:54:00,30.5,21.2,30.15,NW,313,1.3,2.3,68,0.00,CLR,OVC,0.00,WeatherDisplay:10.37,2013-03-19 00:54:00,
2013-03-18 20:55:00,30.5,21.2,30.15,NW,313,1.6,2.3,68,0.00,CLR,OVC,0.00,WeatherDisplay:10.37,2013-03-19 00:55:00,
2013-03-18 20:58:00,30.4,21.1,30.15,NW,313,0.1,1.2,68,0.00,CLR,OVC,0.00,WeatherDisplay:10.37,2013-03-19 00:58:00,
2013-03-18 20:59:00,30.4,21.1,30.15,NW,313,0.0,0.0,68,0.00,CLR,OVC,0.00,WeatherDisplay:10.37,2013-03-19 00:59:00,
2013-03-18 21:00:00,30.4,21.1,30.15,NW,313,0.2,1.2,68,0.00,CLR,OVC,0.00,WeatherDisplay:10.37,2013-03-19 01:00:00,
2013-03-18 21:01:00,30.4,21.1,30.15,NW,313,1.0,1.2,68,0.00,CLR,OVC,0.00,WeatherDisplay:10.37,2013-03-19 01:01:00,
2013-03-18 21:03:00,30.4,21.1,30.15,NW,313,0.2,1.2,68,0.00,CLR,OVC,0.00,WeatherDisplay:10.37,2013-03-19 01:03:00,
2013-03-18 21:04:00,30.4,21.1,30.15,NW,313,0.0,0.0,68,0.00,CLR,OVC,0.00,WeatherDisplay:10.37,2013-03-19 01:04:00,
2013-03-18 21:05:00,30.4,21.1,30.15,NW,313,0.0,0.0,68,0.00,CLR,OVC,0.00,WeatherDisplay:10.37,2013-03-19 01:05:00,
2013-03-18 21:06:00,30.4,20.7,30.15,NW,313,0.0,0.0,67,0.00,CLR,OVC,0.00,WeatherDisplay:10.37,2013-03-19 01:06:00,
2013-03-18 21:08:00,30.3,20.6,30.15,NW,313,0.0,0.0,67,0.00,CLR,OVC,0.00,WeatherDisplay:10.37,2013-03-19 01:08:00,
2013-03-18 21:09:00,30.3,20.6,30.16,NW,313,0.0,0.0,67,0.00,CLR,OVC,0.00,WeatherDisplay:10.37,2013-03-19 01:09:00,
2013-03-18 21:10:00,30.3,21.0,30.16,NW,313,0.0,0.0,68,0.00,CLR,OVC,0.00,WeatherDisplay:10.37,2013-03-19 01:10:00,
2013-03-18 21:11:00,30.3,20.6,30.16,NW,313,0.5,2.3,67,0.00,CLR,OVC,0.00,WeatherDisplay:10.37,2013-03-19 01:11:00,
2013-03-18 21:14:00,30.3,20.6,30.16,NW,313,0.9,2.3,67,0.00,CLR,OVC,0.00,WeatherDisplay:10.37,2013-03-19 01:14:00,
2013-03-18 21:15:00,30.3,20.6,30.15,NW,313,0.7,1.2,67,0.00,CLR,OVC,0.00,WeatherDisplay:10.37,2013-03-19 01:15:00,
2013-03-18 21:16:00,30.3,20.6,30.15,NW,313,0.0,1.2,67,0.00,CLR,OVC,0.00,WeatherDisplay:10.37,2013-03-19 01:16:00,
2013-03-18 21:19:00,30.3,20.6,30.16,NW,313,0.1,1.2,67,0.00,CLR,OVC,0.00,WeatherDisplay:10.37,2013-03-19 01:19:00,
2013-03-18 21:20:00,30.2,20.6,30.16,NW,313,1.3,3.5,67,0.00,CLR,OVC,0.00,WeatherDisplay:10.37,2013-03-19 01:20:00,
2013-03-18 21:21:00,30.2,20.6,30.16,NW,313,0.0,2.3,67,0.00,CLR,OVC,0.00,WeatherDisplay:10.37,2013-03-19 01:21:00,
2013-03-18 21:24:00,30.2,20.6,30.16,NW,313,0.0,0.0,67,0.00,CLR,OVC,0.00,WeatherDisplay:10.37,2013-03-19 01:24:00,
2013-03-18 21:25:00,30.2,20.6,30.16,NW,313,0.0,0.0,67,0.00,CLR,OVC,0.00,WeatherDisplay:10.37,2013-03-19 01:25:00,
2013-03-18 21:26:00,30.2,20.6,30.15,NW,313,0.1,0.0,67,0.00,CLR,OVC,0.00,WeatherDisplay:10.37,2013-03-19 01:26:00,
2013-03-18 21:29:00,30.2,20.6,30.16,NW,313,2.8,4.0,67,0.00,CLR,OVC,0.00,WeatherDisplay:10.37,2013-03-19 01:29:00,
2013-03-18 21:30:00,30.2,20.6,30.16,NW,313,2.9,3.5,67,0.00,CLR,OVC,0.00,WeatherDisplay:10.37,2013-03-19 01:30:00,
2013-03-18 21:32:00,30.3,20.6,30.16,NW,313,0.1,1.2,67,0.00,CLR,OVC,0.00,WeatherDisplay:10.37,2013-03-19 01:32:00,
2013-03-18 21:34:00,30.3,20.3,30.16,NW,313,0.0,0.0,66,0.00,CLR,OVC,0.00,WeatherDisplay:10.37,2013-03-19 01:34:00,
2013-03-18 21:35:00,30.4,20.4,30.17,NW,313,0.2,2.0,66,0.00,CLR,OVC,0.00,WeatherDisplay:10.37,2013-03-19 01:35:00,
2013-03-18 21:37:00,30.4,20.4,30.16,NW,313,2.5,3.5,66,0.00,CLR,OVC,0.00,WeatherDisplay:10.37,2013-03-19 01:37:00,
2013-03-18 21:39:00,30.4,20.4,30.16,NW,313,0.1,3.5,66,0.00,CLR,OVC,0.00,WeatherDisplay:10.37,2013-03-19 01:39:00,
2013-03-18 21:40:00,30.5,20.5,30.16,NW,313,0.8,2.3,66,0.00,CLR,OVC,0.00,WeatherDisplay:10.37,2013-03-19 01:40:00,
2013-03-18 21:42:00,30.5,20.1,30.16,NW,313,0.7,2.3,65,0.00,CLR,OVC,0.00,WeatherDisplay:10.37,2013-03-19 01:42:00,
2013-03-18 21:44:00,30.6,20.2,30.15,NW,313,0.3,1.0,65,0.00,CLR,OVC,0.00,WeatherDisplay:10.37,2013-03-19 01:44:00,
2013-03-18 21:45:00,30.6,20.2,30.15,NW,313,0.0,2.0,65,0.00,CLR,OVC,0.00,WeatherDisplay:10.37,2013-03-19 01:45:00,
2013-03-18 21:47:00,30.6,19.9,30.15,NW,313,0.0,0.0,64,0.00,CLR,OVC,0.00,WeatherDisplay:10.37,2013-03-19 01:47:00,
2013-03-18 21:49:00,30.6,19.9,30.15,NW,313,0.0,0.0,64,0.00,CLR,OVC,0.00,WeatherDisplay:10.37,2013-03-19 01:49:00,
2013-03-18 21:50:00,30.6,19.9,30.15,NW,313,0.0,0.0,64,0.00,CLR,OVC,0.00,WeatherDisplay:10.37,2013-03-19 01:50:00,
2013-03-18 21:52:00,30.7,20.0,30.15,NW,313,0.9,2.3,64,0.00,CLR,OVC,0.00,WeatherDisplay:10.37,2013-03-19 01:52:00,
2013-03-18 21:54:00,30.7,20.3,30.15,NW,313,0.0,0.0,65,0.00,CLR,OVC,0.00,WeatherDisplay:10.37,2013-03-19 01:54:00,
2013-03-18 21:55:00,30.8,20.4,30.15,NW,313,0.0,0.0,65,0.00,CLR,OVC,0.00,WeatherDisplay:10.37,2013-03-19 01:55:00,
2013-03-18 21:56:00,30.8,20.4,30.15,NW,313,0.0,0.0,65,0.00,CLR,OVC,0.00,WeatherDisplay:10.37,2013-03-19 01:56:00,
2013-03-18 21:57:00,30.8,20.4,30.15,NW,313,0.1,0.0,65,0.00,CLR,OVC,0.00,WeatherDisplay:10.37,2013-03-19 01:57:00,
2013-03-18 21:59:00,30.8,20.4,30.14,NW,313,0.0,0.0,65,0.00,CLR,OVC,0.00,WeatherDisplay:10.37,2013-03-19 01:59:00,
2013-03-18 22:00:00,30.8,20.4,30.14,NW,313,0.0,0.0,65,0.00,CLR,OVC,0.00,WeatherDisplay:10.37,2013-03-19 02:00:00,
2013-03-18 22:02:00,30.8,20.4,30.14,NW,313,0.7,1.2,65,0.00,CLR,OVC,0.00,WeatherDisplay:10.37,2013-03-19 02:02:00,
2013-03-18 22:04:00,30.8,20.8,30.14,NW,313,0.4,2.0,66,0.00,CLR,OVC,0.00,WeatherDisplay:10.37,2013-03-19 02:04:00,
2013-03-18 22:06:00,30.9,20.9,30.14,NW,313,1.2,2.3,66,0.00,CLR,OVC,0.00,WeatherDisplay:10.37,2013-03-19 02:06:00,
2013-03-18 22:08:00,30.8,20.4,30.14,NW,313,0.6,2.3,65,0.00,CLR,OVC,0.00,WeatherDisplay:10.37,2013-03-19 02:08:00,
2013-03-18 22:09:00,30.9,20.5,30.14,NW,313,0.8,2.0,65,0.00,CLR,OVC,0.00,WeatherDisplay:10.37,2013-03-19 02:09:00,
2013-03-18 22:11:00,30.9,20.5,30.14,NW,313,1.7,3.5,65,0.00,CLR,OVC,0.00,WeatherDisplay:10.37,2013-03-19 02:11:00,
2013-03-18 22:13:00,30.9,20.5,30.14,NW,313,0.0,3.5,65,0.00,CLR,OVC,0.00,WeatherDisplay:10.37,2013-03-19 02:13:00,
2013-03-18 22:14:00,30.9,20.1,30.14,NW,313,1.1,1.2,64,0.00,CLR,OVC,0.00,WeatherDisplay:10.37,2013-03-19 02:14:00,
2013-03-18 22:17:00,31.0,20.6,30.14,NW,313,1.1,2.3,65,0.00,CLR,OVC,0.00,WeatherDisplay:10.37,2013-03-19 02:17:00,
2013-03-18 22:18:00,31.0,20.6,30.13,NW,313,1.3,2.3,65,0.00,CLR,OVC,0.00,WeatherDisplay:10.37,2013-03-19 02:18:00,
2013-03-18 22:20:00,31.0,20.2,30.13,NW,313,1.4,2.3,64,0.00,CLR,OVC,0.00,WeatherDisplay:10.37,2013-03-19 02:20:00,
2013-03-18 22:22:00,31.0,20.2,30.13,NW,313,0.7,1.2,64,0.00,CLR,OVC,0.00,WeatherDisplay:10.37,2013-03-19 02:22:00,
2013-03-18 22:23:00,31.0,20.2,30.13,NW,313,0.2,1.2,64,0.00,CLR,OVC,0.00,WeatherDisplay:10.37,2013-03-19 02:23:00,
2013-03-18 22:25:00,31.0,20.2,30.13,NW,313,0.9,2.3,64,0.00,CLR,OVC,0.00,WeatherDisplay:10.37,2013-03-19 02:25:00,
2013-03-18 22:27:00,31.0,20.6,30.13,NW,313,0.0,0.0,65,0.00,CLR,OVC,0.00,WeatherDisplay:10.37,2013-03-19 02:27:00,
2013-03-18 22:28:00,31.0,20.6,30.13,NW,313,0.0,0.0,65,0.00,CLR,OVC,0.00,WeatherDisplay:10.37,2013-03-19 02:28:00,
2013-03-18 22:30:00,31.0,20.6,30.13,NW,313,0.0,0.0,65,0.00,CLR,OVC,0.00,WeatherDisplay:10.37,2013-03-19 02:30:00,
2013-03-18 22:32:00,31.1,20.7,30.13,NW,313,1.1,2.3,65,0.00,CLR,OVC,0.00,WeatherDisplay:10.37,2013-03-19 02:32:00,
2013-03-18 22:33:00,31.1,20.7,30.13,NW,313,1.1,2.3,65,0.00,CLR,OVC,0.00,WeatherDisplay:10.37,2013-03-19 02:33:00,
2013-03-18 22:35:00,31.1,20.7,30.13,NW,313,0.6,1.2,65,0.00,CLR,OVC,0.00,WeatherDisplay:10.37,2013-03-19 02:35:00,
2013-03-18 22:37:00,31.1,20.7,30.13,NW,313,0.2,1.2,65,0.00,CLR,OVC,0.00,WeatherDisplay:10.37,2013-03-19 02:37:00,
2013-03-18 22:38:00,31.1,20.7,30.13,NW,313,1.8,3.5,65,0.00,CLR,OVC,0.00,WeatherDisplay:10.37,2013-03-19 02:38:00,
2013-03-18 22:39:00,31.1,20.7,30.13,NW,313,3.1,3.5,65,0.00,CLR,OVC,0.00,WeatherDisplay:10.37,2013-03-19 02:39:00,
2013-03-18 22:40:00,31.1,21.1,30.13,NW,313,1.1,3.5,66,0.00,CLR,OVC,0.00,WeatherDisplay:10.37,2013-03-19 02:40:00,
2013-03-18 22:42:00,31.1,21.1,30.13,NW,313,0.8,2.3,66,0.00,CLR,OVC,0.00,WeatherDisplay:10.37,2013-03-19 02:42:00,
2013-03-18 22:43:00,31.1,21.1,30.13,NW,313,1.4,3.0,66,0.00,CLR,OVC,0.00,WeatherDisplay:10.37,2013-03-19 02:43:00,
2013-03-18 22:44:00,31.1,21.1,30.13,NW,313,2.0,3.5,66,0.00,CLR,OVC,0.00,WeatherDisplay:10.37,2013-03-19 02:44:00,
2013-03-18 22:45:00,31.0,21.0,30.13,NW,304,3.7,4.0,66,0.00,CLR,OVC,0.00,WeatherDisplay:10.37,2013-03-19 02:45:00,
2013-03-18 22:47:00,31.0,21.3,30.13,SW,236,4.9,5.8,67,0.00,CLR,OVC,0.00,WeatherDisplay:10.37,2013-03-19 02:47:00,
2013-03-18 22:48:00,31.0,21.3,30.12,SW,232,4.1,5.8,67,0.00,CLR,OVC,0.00,WeatherDisplay:10.37,2013-03-19 02:48:00,
2013-03-18 22:49:00,31.0,21.3,30.13,SW,232,4.0,4.6,67,0.00,CLR,OVC,0.00,WeatherDisplay:10.37,2013-03-19 02:49:00,
2013-03-18 22:50:00,31.0,21.7,30.13,SW,232,4.1,5.0,68,0.00,CLR,OVC,0.00,WeatherDisplay:10.37,2013-03-19 02:50:00,
2013-03-18 22:52:00,31.0,22.0,30.12,SW,227,4.2,5.8,69,0.00,CLR,OVC,0.00,WeatherDisplay:10.37,2013-03-19 02:52:00,
2013-03-18 22:53:00,31.0,22.0,30.12,SW,226,4.8,6.9,69,0.00,CLR,OVC,0.00,WeatherDisplay:10.37,2013-03-19 02:53:00,
2013-03-18 22:54:00,31.0,22.0,30.13,SW,226,3.7,6.9,69,0.00,CLR,OVC,0.00,WeatherDisplay:10.37,2013-03-19 02:54:00,
2013-03-18 22:55:00,31.0,22.0,30.12,SSW,211,4.2,4.2,69,0.00,CLR,OVC,0.00,WeatherDisplay:10.37,2013-03-19 02:55:00,
2013-03-18 22:58:00,31.0,22.0,30.12,SSW,205,2.9,4.6,69,0.00,CLR,OVC,0.00,WeatherDisplay:10.37,2013-03-19 02:58:00,
2013-03-18 22:59:00,31.0,22.0,30.12,SSW,205,3.2,4.0,69,0.00,CLR,OVC,0.00,WeatherDisplay:10.37,2013-03-19 02:59:00,
2013-03-18 23:00:00,31.0,21.7,30.12,SSW,205,3.8,4.6,68,0.00,CLR,OVC,0.00,WeatherDisplay:10.37,2013-03-19 03:00:00,
2013-03-18 23:03:00,31.1,21.4,30.12,South,183,5.2,6.0,67,0.00,CLR,OVC,0.00,WeatherDisplay:10.37,2013-03-19 03:03:00,
2013-03-18 23:04:00,31.1,21.4,30.12,South,183,4.7,6.9,67,0.00,CLR,OVC,0.00,WeatherDisplay:10.37,2013-03-19 03:04:00,
2013-03-18 23:05:00,31.1,21.1,30.12,South,182,3.9,6.0,66,0.00,CLR,OVC,0.00,WeatherDisplay:10.37,2013-03-19 03:05:00,
2013-03-18 23:09:00,31.3,20.9,30.12,South,175,4.5,7.0,65,0.00,CLR,OVC,0.00,WeatherDisplay:10.37,2013-03-19 03:09:00,
2013-03-18 23:10:00,31.3,20.2,30.12,South,176,4.5,6.9,63,0.00,CLR,OVC,0.00,WeatherDisplay:10.37,2013-03-19 03:10:00,
2013-03-18 23:14:00,31.6,20.1,30.12,South,178,4.3,5.0,62,0.00,CLR,OVC,0.00,WeatherDisplay:10.37,2013-03-19 03:14:00,
2013-03-18 23:16:00,31.7,19.8,30.12,SSE,165,7.3,11.5,61,0.00,CLR,OVC,0.00,WeatherDisplay:10.37,2013-03-19 03:16:00,
2013-03-18 23:19:00,32.0,20.4,30.12,South,173,5.1,7.0,62,0.00,CLR,OVC,0.00,WeatherDisplay:10.37,2013-03-19 03:19:00,
2013-03-18 23:21:00,32.1,20.9,30.12,SSW,193,8.7,15.0,63,0.00,CLR,OVC,0.00,WeatherDisplay:10.37,2013-03-19 03:21:00,
2013-03-18 23:24:00,32.3,21.8,30.12,South,183,9.7,15.0,65,0.00,CLR,OVC,0.00,WeatherDisplay:10.37,2013-03-19 03:24:00,
2013-03-18 23:25:00,32.4,21.9,30.12,SSW,198,8.9,12.7,65,0.00,CLR,OVC,0.00,WeatherDisplay:10.37,2013-03-19 03:25:00,
2013-03-18 23:26:00,32.4,22.3,30.12,South,190,6.8,11.5,66,0.00,CLR,OVC,0.00,WeatherDisplay:10.37,2013-03-19 03:26:00,
2013-03-18 23:29:00,32.4,23.0,30.12,SSW,192,12.9,17.3,68,0.00,CLR,OVC,0.00,WeatherDisplay:10.37,2013-03-19 03:29:00,
2013-03-18 23:30:00,32.4,23.4,30.12,South,170,11.6,17.3,69,0.00,CLR,OVC,0.00,WeatherDisplay:10.37,2013-03-19 03:30:00,
2013-03-18 23:32:00,32.4,23.7,30.12,SSW,205,10.9,15.0,70,0.00,CLR,OVC,0.00,WeatherDisplay:10.37,2013-03-19 03:32:00,
2013-03-18 23:34:00,32.4,24.4,30.12,South,178,10.4,17.3,72,0.00,CLR,OVC,0.00,WeatherDisplay:10.37,2013-03-19 03:34:00,
2013-03-18 23:35:00,32.4,24.4,30.12,South,185,8.2,12.7,72,0.00,CLR,OVC,0.00,WeatherDisplay:10.37,2013-03-19 03:35:00,
2013-03-18 23:37:00,32.4,24.4,30.12,SE,139,7.4,10.4,72,0.00,CLR,OVC,0.00,WeatherDisplay:10.37,2013-03-19 03:37:00,
2013-03-18 23:39:00,32.3,24.6,30.12,South,186,7.5,10.4,73,0.00,CLR,OVC,0.00,WeatherDisplay:10.37,2013-03-19 03:39:00,
2013-03-18 23:40:00,32.3,24.6,30.12,SSW,200,7.7,11.5,73,0.00,CLR,OVC,0.00,WeatherDisplay:10.37,2013-03-19 03:40:00,
2013-03-18 23:43:00,32.2,24.8,30.11,South,186,9.9,12.7,74,0.00,CLR,OVC,0.00,WeatherDisplay:10.37,2013-03-19 03:43:00,
2013-03-18 23:44:00,32.1,24.7,30.11,SSW,199,9.1,13.0,74,0.00,CLR,OVC,0.00,WeatherDisplay:10.37,2013-03-19 03:44:00,
2013-03-18 23:45:00,32.1,24.7,30.11,SSE,158,9.9,13.8,74,0.00,CLR,OVC,0.00,WeatherDisplay:10.37,2013-03-19 03:45:00,
2013-03-18 23:48:00,32.1,25.1,30.11,South,185,7.3,11.5,75,0.00,CLR,OVC,0.00,WeatherDisplay:10.37,2013-03-19 03:48:00,
2013-03-18 23:49:00,32.0,25.0,30.11,South,174,9.9,12.7,75,0.00,CLR,OVC,0.00,WeatherDisplay:10.37,2013-03-19 03:49:00,
2013-03-18 23:50:00,31.9,25.2,30.11,SSE,165,8.1,15.0,76,0.00,CLR,OVC,0.00,WeatherDisplay:10.37,2013-03-19 03:50:00,
2013-03-18 23:53:00,31.9,25.2,30.11,SSE,159,8.9,11.5,76,0.00,CLR,OVC,0.00,WeatherDisplay:10.37,2013-03-19 03:53:00,
2013-03-18 23:54:00,31.8,25.4,30.10,SE,140,9.3,16.0,77,0.00,CLR,OVC,0.00,WeatherDisplay:10.37,2013-03-19 03:54:00,
2013-03-18 23:55:00,31.8,25.4,30.10,SSE,164,10.0,18.4,77,0.00,CLR,OVC,0.00,WeatherDisplay:10.37,2013-03-19 03:55:00,
2013-03-18 23:57:00,31.7,25.3,30.10,SSW,192,9.4,12.0,77,0.00,CLR,OVC,0.00,WeatherDisplay:10.37,2013-03-19 03:57:00,
2013-03-18 23:58:00,31.6,25.5,30.10,South,180,10.6,15.0,78,0.00,CLR,OVC,0.00,WeatherDisplay:10.37,2013-03-19 03:58:00,